<?xml version="1.0" encoding="UTF-8" standalone="no" ?>
<gpx xmlns="http://www.topografix.com/GPX/1/1" xmlns:xsi="http://www.w3.org/2001/XMLSchema-instance" xsi:schemaLocation="http://www.topografix.com/GPX/1/1 http://www.topografix.com/GPX/1/1/gpx.xsd" version="1.1" creator="VisuGPX - https://www.visugpx.com">
  <metadata>
    <name>Trail/Train a St Germain Mont d\'or</name>
    <desc><![CDATA[14km et env 530m D  a 12mn en train de la part dieu]]></desc>
  </metadata>
  <trk>
    <name><![CDATA[st german gare - mt verdun]]></name>
    <cmt><![CDATA[19 juin 2015 20:45:38]]></cmt>
    <trkseg>
      <trkpt lat="45.88811" lon="4.8046">
        <ele>180</ele>
        <time>2015-06-19T18:45:39Z</time>
      </trkpt>
      <trkpt lat="45.88804" lon="4.80467">
        <ele>181</ele>
        <time>2015-06-19T18:45:45Z</time>
      </trkpt>
      <trkpt lat="45.888" lon="4.8047">
        <ele>181</ele>
        <time>2015-06-19T18:45:48Z</time>
      </trkpt>
      <trkpt lat="45.88798" lon="4.80477">
        <ele>182</ele>
        <time>2015-06-19T18:45:53Z</time>
      </trkpt>
      <trkpt lat="45.88788" lon="4.80485">
        <ele>182</ele>
        <time>2015-06-19T18:46:00Z</time>
      </trkpt>
      <trkpt lat="45.88766" lon="4.80489">
        <ele>184</ele>
        <time>2015-06-19T18:46:08Z</time>
      </trkpt>
      <trkpt lat="45.88758" lon="4.80477">
        <ele>186</ele>
        <time>2015-06-19T18:46:14Z</time>
      </trkpt>
      <trkpt lat="45.88752" lon="4.80468">
        <ele>187</ele>
        <time>2015-06-19T18:46:16Z</time>
      </trkpt>
      <trkpt lat="45.8874" lon="4.80447">
        <ele>192</ele>
        <time>2015-06-19T18:46:25Z</time>
      </trkpt>
      <trkpt lat="45.88701" lon="4.80416">
        <ele>200</ele>
        <time>2015-06-19T18:46:43Z</time>
      </trkpt>
      <trkpt lat="45.88697" lon="4.80412">
        <ele>200</ele>
        <time>2015-06-19T18:46:45Z</time>
      </trkpt>
      <trkpt lat="45.88693" lon="4.80407">
        <ele>201</ele>
        <time>2015-06-19T18:46:47Z</time>
      </trkpt>
      <trkpt lat="45.88686" lon="4.80403">
        <ele>201</ele>
        <time>2015-06-19T18:46:49Z</time>
      </trkpt>
      <trkpt lat="45.88683" lon="4.804">
        <ele>201</ele>
        <time>2015-06-19T18:46:50Z</time>
      </trkpt>
      <trkpt lat="45.88668" lon="4.80385">
        <ele>202</ele>
        <time>2015-06-19T18:46:56Z</time>
      </trkpt>
      <trkpt lat="45.88654" lon="4.80377">
        <ele>201</ele>
        <time>2015-06-19T18:47:00Z</time>
      </trkpt>
      <trkpt lat="45.88649" lon="4.80374">
        <ele>201</ele>
        <time>2015-06-19T18:47:02Z</time>
      </trkpt>
      <trkpt lat="45.88647" lon="4.80373">
        <ele>202</ele>
        <time>2015-06-19T18:47:03Z</time>
      </trkpt>
      <trkpt lat="45.88644" lon="4.80373">
        <ele>202</ele>
        <time>2015-06-19T18:47:04Z</time>
      </trkpt>
      <trkpt lat="45.88637" lon="4.80368">
        <ele>201</ele>
        <time>2015-06-19T18:47:07Z</time>
      </trkpt>
      <trkpt lat="45.88611" lon="4.80351">
        <ele>202</ele>
        <time>2015-06-19T18:47:19Z</time>
      </trkpt>
      <trkpt lat="45.88591" lon="4.8034">
        <ele>205</ele>
        <time>2015-06-19T18:47:29Z</time>
      </trkpt>
      <trkpt lat="45.88581" lon="4.80337">
        <ele>205</ele>
        <time>2015-06-19T18:47:32Z</time>
      </trkpt>
      <trkpt lat="45.88575" lon="4.80336">
        <ele>205</ele>
        <time>2015-06-19T18:47:34Z</time>
      </trkpt>
      <trkpt lat="45.88571" lon="4.80334">
        <ele>207</ele>
        <time>2015-06-19T18:47:36Z</time>
      </trkpt>
      <trkpt lat="45.8856" lon="4.80322">
        <ele>208</ele>
        <time>2015-06-19T18:47:42Z</time>
      </trkpt>
      <trkpt lat="45.88555" lon="4.8032">
        <ele>208</ele>
        <time>2015-06-19T18:47:44Z</time>
      </trkpt>
      <trkpt lat="45.88547" lon="4.80317">
        <ele>207</ele>
        <time>2015-06-19T18:47:47Z</time>
      </trkpt>
      <trkpt lat="45.88539" lon="4.80317">
        <ele>210</ele>
        <time>2015-06-19T18:47:51Z</time>
      </trkpt>
      <trkpt lat="45.88534" lon="4.80319">
        <ele>210</ele>
        <time>2015-06-19T18:47:54Z</time>
      </trkpt>
      <trkpt lat="45.88528" lon="4.80317">
        <ele>209</ele>
        <time>2015-06-19T18:47:58Z</time>
      </trkpt>
      <trkpt lat="45.88517" lon="4.80313">
        <ele>210</ele>
        <time>2015-06-19T18:48:03Z</time>
      </trkpt>
      <trkpt lat="45.88496" lon="4.8031">
        <ele>210</ele>
        <time>2015-06-19T18:48:10Z</time>
      </trkpt>
      <trkpt lat="45.88447" lon="4.80294">
        <ele>214</ele>
        <time>2015-06-19T18:48:31Z</time>
      </trkpt>
      <trkpt lat="45.88424" lon="4.80285">
        <ele>214</ele>
        <time>2015-06-19T18:48:40Z</time>
      </trkpt>
      <trkpt lat="45.88414" lon="4.8028">
        <ele>215</ele>
        <time>2015-06-19T18:48:45Z</time>
      </trkpt>
      <trkpt lat="45.88403" lon="4.80266">
        <ele>214</ele>
        <time>2015-06-19T18:48:51Z</time>
      </trkpt>
      <trkpt lat="45.88394" lon="4.8026">
        <ele>215</ele>
        <time>2015-06-19T18:48:54Z</time>
      </trkpt>
      <trkpt lat="45.88377" lon="4.80238">
        <ele>218</ele>
        <time>2015-06-19T18:49:03Z</time>
      </trkpt>
      <trkpt lat="45.88373" lon="4.80237">
        <ele>218</ele>
        <time>2015-06-19T18:49:05Z</time>
      </trkpt>
      <trkpt lat="45.88366" lon="4.80243">
        <ele>217</ele>
        <time>2015-06-19T18:49:09Z</time>
      </trkpt>
      <trkpt lat="45.88359" lon="4.80246">
        <ele>216</ele>
        <time>2015-06-19T18:49:14Z</time>
      </trkpt>
      <trkpt lat="45.88285" lon="4.80229">
        <ele>224</ele>
        <time>2015-06-19T18:49:47Z</time>
      </trkpt>
      <trkpt lat="45.8828" lon="4.80226">
        <ele>225</ele>
        <time>2015-06-19T18:49:50Z</time>
      </trkpt>
      <trkpt lat="45.88264" lon="4.80221">
        <ele>226</ele>
        <time>2015-06-19T18:49:57Z</time>
      </trkpt>
      <trkpt lat="45.88259" lon="4.8022">
        <ele>227</ele>
        <time>2015-06-19T18:50:00Z</time>
      </trkpt>
      <trkpt lat="45.8823" lon="4.80216">
        <ele>226</ele>
        <time>2015-06-19T18:50:12Z</time>
      </trkpt>
      <trkpt lat="45.88217" lon="4.80218">
        <ele>226</ele>
        <time>2015-06-19T18:50:17Z</time>
      </trkpt>
      <trkpt lat="45.8821" lon="4.80219">
        <ele>226</ele>
        <time>2015-06-19T18:50:19Z</time>
      </trkpt>
      <trkpt lat="45.88196" lon="4.80218">
        <ele>229</ele>
        <time>2015-06-19T18:50:24Z</time>
      </trkpt>
      <trkpt lat="45.88192" lon="4.80226">
        <ele>230</ele>
        <time>2015-06-19T18:50:27Z</time>
      </trkpt>
      <trkpt lat="45.88188" lon="4.8023">
        <ele>230</ele>
        <time>2015-06-19T18:50:30Z</time>
      </trkpt>
      <trkpt lat="45.88168" lon="4.80228">
        <ele>232</ele>
        <time>2015-06-19T18:50:36Z</time>
      </trkpt>
      <trkpt lat="45.88159" lon="4.80225">
        <ele>239</ele>
        <time>2015-06-19T18:50:41Z</time>
      </trkpt>
      <trkpt lat="45.8815" lon="4.80223">
        <ele>240</ele>
        <time>2015-06-19T18:50:44Z</time>
      </trkpt>
      <trkpt lat="45.88143" lon="4.80222">
        <ele>240</ele>
        <time>2015-06-19T18:50:46Z</time>
      </trkpt>
      <trkpt lat="45.88124" lon="4.80223">
        <ele>239</ele>
        <time>2015-06-19T18:50:50Z</time>
      </trkpt>
      <trkpt lat="45.88117" lon="4.80224">
        <ele>240</ele>
        <time>2015-06-19T18:50:52Z</time>
      </trkpt>
      <trkpt lat="45.88113" lon="4.80221">
        <ele>241</ele>
        <time>2015-06-19T18:50:54Z</time>
      </trkpt>
      <trkpt lat="45.88114" lon="4.80212">
        <ele>242</ele>
        <time>2015-06-19T18:50:56Z</time>
      </trkpt>
      <trkpt lat="45.88114" lon="4.80202">
        <ele>245</ele>
        <time>2015-06-19T18:50:59Z</time>
      </trkpt>
      <trkpt lat="45.88105" lon="4.80162">
        <ele>250</ele>
        <time>2015-06-19T18:51:20Z</time>
      </trkpt>
      <trkpt lat="45.88102" lon="4.80134">
        <ele>251</ele>
        <time>2015-06-19T18:51:29Z</time>
      </trkpt>
      <trkpt lat="45.88102" lon="4.80127">
        <ele>251</ele>
        <time>2015-06-19T18:51:31Z</time>
      </trkpt>
      <trkpt lat="45.88104" lon="4.80054">
        <ele>255</ele>
        <time>2015-06-19T18:51:48Z</time>
      </trkpt>
      <trkpt lat="45.88104" lon="4.80046">
        <ele>255</ele>
        <time>2015-06-19T18:51:50Z</time>
      </trkpt>
      <trkpt lat="45.88103" lon="4.80041">
        <ele>255</ele>
        <time>2015-06-19T18:51:51Z</time>
      </trkpt>
      <trkpt lat="45.88095" lon="4.80004">
        <ele>254</ele>
        <time>2015-06-19T18:52:02Z</time>
      </trkpt>
      <trkpt lat="45.88092" lon="4.80002">
        <ele>253</ele>
        <time>2015-06-19T18:52:04Z</time>
      </trkpt>
      <trkpt lat="45.88086" lon="4.79929">
        <ele>255</ele>
        <time>2015-06-19T18:52:16Z</time>
      </trkpt>
      <trkpt lat="45.88084" lon="4.79925">
        <ele>254</ele>
        <time>2015-06-19T18:52:17Z</time>
      </trkpt>
      <trkpt lat="45.88074" lon="4.79904">
        <ele>254</ele>
        <time>2015-06-19T18:52:22Z</time>
      </trkpt>
      <trkpt lat="45.88072" lon="4.799">
        <ele>254</ele>
        <time>2015-06-19T18:52:23Z</time>
      </trkpt>
      <trkpt lat="45.88067" lon="4.79893">
        <ele>254</ele>
        <time>2015-06-19T18:52:25Z</time>
      </trkpt>
      <trkpt lat="45.88064" lon="4.79886">
        <ele>253</ele>
        <time>2015-06-19T18:52:27Z</time>
      </trkpt>
      <trkpt lat="45.88061" lon="4.79876">
        <ele>252</ele>
        <time>2015-06-19T18:52:29Z</time>
      </trkpt>
      <trkpt lat="45.88059" lon="4.79872">
        <ele>252</ele>
        <time>2015-06-19T18:52:30Z</time>
      </trkpt>
      <trkpt lat="45.88057" lon="4.79869">
        <ele>252</ele>
        <time>2015-06-19T18:52:31Z</time>
      </trkpt>
      <trkpt lat="45.88041" lon="4.79846">
        <ele>250</ele>
        <time>2015-06-19T18:52:38Z</time>
      </trkpt>
      <trkpt lat="45.88039" lon="4.79842">
        <ele>251</ele>
        <time>2015-06-19T18:52:39Z</time>
      </trkpt>
      <trkpt lat="45.8803" lon="4.79835">
        <ele>252</ele>
        <time>2015-06-19T18:52:45Z</time>
      </trkpt>
      <trkpt lat="45.88021" lon="4.7983">
        <ele>251</ele>
        <time>2015-06-19T18:52:56Z</time>
      </trkpt>
      <trkpt lat="45.88012" lon="4.79821">
        <ele>252</ele>
        <time>2015-06-19T18:53:00Z</time>
      </trkpt>
      <trkpt lat="45.87995" lon="4.79816">
        <ele>252</ele>
        <time>2015-06-19T18:53:06Z</time>
      </trkpt>
      <trkpt lat="45.87992" lon="4.79816">
        <ele>251</ele>
        <time>2015-06-19T18:53:07Z</time>
      </trkpt>
      <trkpt lat="45.87988" lon="4.79815">
        <ele>250</ele>
        <time>2015-06-19T18:53:09Z</time>
      </trkpt>
      <trkpt lat="45.87986" lon="4.79814">
        <ele>251</ele>
        <time>2015-06-19T18:53:10Z</time>
      </trkpt>
      <trkpt lat="45.8798" lon="4.79813">
        <ele>250</ele>
        <time>2015-06-19T18:53:12Z</time>
      </trkpt>
      <trkpt lat="45.87972" lon="4.79812">
        <ele>251</ele>
        <time>2015-06-19T18:53:14Z</time>
      </trkpt>
      <trkpt lat="45.87965" lon="4.79811">
        <ele>250</ele>
        <time>2015-06-19T18:53:16Z</time>
      </trkpt>
      <trkpt lat="45.87951" lon="4.79814">
        <ele>251</ele>
        <time>2015-06-19T18:53:19Z</time>
      </trkpt>
      <trkpt lat="45.87944" lon="4.79815">
        <ele>252</ele>
        <time>2015-06-19T18:53:21Z</time>
      </trkpt>
      <trkpt lat="45.87932" lon="4.7981">
        <ele>255</ele>
        <time>2015-06-19T18:53:30Z</time>
      </trkpt>
      <trkpt lat="45.87927" lon="4.79812">
        <ele>255</ele>
        <time>2015-06-19T18:53:32Z</time>
      </trkpt>
      <trkpt lat="45.87927" lon="4.79806">
        <ele>254</ele>
        <time>2015-06-19T18:53:36Z</time>
      </trkpt>
      <trkpt lat="45.8793" lon="4.798">
        <ele>254</ele>
        <time>2015-06-19T18:53:38Z</time>
      </trkpt>
      <trkpt lat="45.8792" lon="4.79799">
        <ele>256</ele>
        <time>2015-06-19T18:53:44Z</time>
      </trkpt>
      <trkpt lat="45.8788" lon="4.79776">
        <ele>262</ele>
        <time>2015-06-19T18:53:54Z</time>
      </trkpt>
      <trkpt lat="45.87874" lon="4.79771">
        <ele>261</ele>
        <time>2015-06-19T18:53:56Z</time>
      </trkpt>
      <trkpt lat="45.87864" lon="4.79761">
        <ele>260</ele>
        <time>2015-06-19T18:54:00Z</time>
      </trkpt>
      <trkpt lat="45.8786" lon="4.79756">
        <ele>260</ele>
        <time>2015-06-19T18:54:02Z</time>
      </trkpt>
      <trkpt lat="45.87852" lon="4.79749">
        <ele>260</ele>
        <time>2015-06-19T18:54:05Z</time>
      </trkpt>
      <trkpt lat="45.87851" lon="4.79741">
        <ele>262</ele>
        <time>2015-06-19T18:54:07Z</time>
      </trkpt>
      <trkpt lat="45.87849" lon="4.79739">
        <ele>262</ele>
        <time>2015-06-19T18:54:08Z</time>
      </trkpt>
      <trkpt lat="45.87841" lon="4.797">
        <ele>267</ele>
        <time>2015-06-19T18:54:19Z</time>
      </trkpt>
      <trkpt lat="45.87838" lon="4.79697">
        <ele>267</ele>
        <time>2015-06-19T18:54:20Z</time>
      </trkpt>
      <trkpt lat="45.87822" lon="4.79679">
        <ele>270</ele>
        <time>2015-06-19T18:54:30Z</time>
      </trkpt>
      <trkpt lat="45.87817" lon="4.79674">
        <ele>270</ele>
        <time>2015-06-19T18:54:32Z</time>
      </trkpt>
      <trkpt lat="45.87789" lon="4.79643">
        <ele>275</ele>
        <time>2015-06-19T18:54:44Z</time>
      </trkpt>
      <trkpt lat="45.87782" lon="4.79639">
        <ele>275</ele>
        <time>2015-06-19T18:54:47Z</time>
      </trkpt>
      <trkpt lat="45.87774" lon="4.79634">
        <ele>276</ele>
        <time>2015-06-19T18:54:50Z</time>
      </trkpt>
      <trkpt lat="45.87763" lon="4.79632">
        <ele>282</ele>
        <time>2015-06-19T18:54:56Z</time>
      </trkpt>
      <trkpt lat="45.87761" lon="4.79624">
        <ele>285</ele>
        <time>2015-06-19T18:55:01Z</time>
      </trkpt>
      <trkpt lat="45.87757" lon="4.79619">
        <ele>288</ele>
        <time>2015-06-19T18:55:06Z</time>
      </trkpt>
      <trkpt lat="45.8775" lon="4.79616">
        <ele>288</ele>
        <time>2015-06-19T18:55:08Z</time>
      </trkpt>
      <trkpt lat="45.8773" lon="4.79626">
        <ele>286</ele>
        <time>2015-06-19T18:55:13Z</time>
      </trkpt>
      <trkpt lat="45.87717" lon="4.79635">
        <ele>284</ele>
        <time>2015-06-19T18:55:19Z</time>
      </trkpt>
      <trkpt lat="45.87704" lon="4.79635">
        <ele>280</ele>
        <time>2015-06-19T18:55:31Z</time>
      </trkpt>
      <trkpt lat="45.87711" lon="4.79636">
        <ele>278</ele>
        <time>2015-06-19T18:55:39Z</time>
      </trkpt>
      <trkpt lat="45.87716" lon="4.79634">
        <ele>275</ele>
        <time>2015-06-19T18:55:43Z</time>
      </trkpt>
      <trkpt lat="45.87718" lon="4.79627">
        <ele>273</ele>
        <time>2015-06-19T18:55:46Z</time>
      </trkpt>
      <trkpt lat="45.87718" lon="4.7962">
        <ele>275</ele>
        <time>2015-06-19T18:55:49Z</time>
      </trkpt>
      <trkpt lat="45.87715" lon="4.79613">
        <ele>279</ele>
        <time>2015-06-19T18:55:52Z</time>
      </trkpt>
      <trkpt lat="45.87718" lon="4.79604">
        <ele>284</ele>
        <time>2015-06-19T18:55:55Z</time>
      </trkpt>
      <trkpt lat="45.8772" lon="4.79598">
        <ele>286</ele>
        <time>2015-06-19T18:55:57Z</time>
      </trkpt>
      <trkpt lat="45.87718" lon="4.7958">
        <ele>288</ele>
        <time>2015-06-19T18:56:01Z</time>
      </trkpt>
      <trkpt lat="45.87688" lon="4.79553">
        <ele>289</ele>
        <time>2015-06-19T18:56:09Z</time>
      </trkpt>
      <trkpt lat="45.87678" lon="4.7955">
        <ele>289</ele>
        <time>2015-06-19T18:56:11Z</time>
      </trkpt>
      <trkpt lat="45.87661" lon="4.79566">
        <ele>289</ele>
        <time>2015-06-19T18:56:12Z</time>
      </trkpt>
      <trkpt lat="45.87661" lon="4.7956">
        <ele>289</ele>
        <time>2015-06-19T18:56:13Z</time>
      </trkpt>
      <trkpt lat="45.87659" lon="4.79558">
        <ele>289</ele>
        <time>2015-06-19T18:56:14Z</time>
      </trkpt>
      <trkpt lat="45.87656" lon="4.79546">
        <ele>288</ele>
        <time>2015-06-19T18:56:16Z</time>
      </trkpt>
      <trkpt lat="45.8766" lon="4.79544">
        <ele>287</ele>
        <time>2015-06-19T18:56:18Z</time>
      </trkpt>
      <trkpt lat="45.87661" lon="4.79541">
        <ele>287</ele>
        <time>2015-06-19T18:56:19Z</time>
      </trkpt>
      <trkpt lat="45.87663" lon="4.79536">
        <ele>286</ele>
        <time>2015-06-19T18:56:20Z</time>
      </trkpt>
      <trkpt lat="45.87661" lon="4.79529">
        <ele>284</ele>
        <time>2015-06-19T18:56:27Z</time>
      </trkpt>
      <trkpt lat="45.87658" lon="4.79523">
        <ele>284</ele>
        <time>2015-06-19T18:56:31Z</time>
      </trkpt>
      <trkpt lat="45.87649" lon="4.79504">
        <ele>282</ele>
        <time>2015-06-19T18:56:37Z</time>
      </trkpt>
      <trkpt lat="45.87647" lon="4.79497">
        <ele>282</ele>
        <time>2015-06-19T18:56:39Z</time>
      </trkpt>
      <trkpt lat="45.87646" lon="4.7949">
        <ele>283</ele>
        <time>2015-06-19T18:56:42Z</time>
      </trkpt>
      <trkpt lat="45.87644" lon="4.79482">
        <ele>283</ele>
        <time>2015-06-19T18:56:48Z</time>
      </trkpt>
      <trkpt lat="45.8764" lon="4.7948">
        <ele>283</ele>
        <time>2015-06-19T18:56:51Z</time>
      </trkpt>
      <trkpt lat="45.87604" lon="4.79478">
        <ele>295</ele>
        <time>2015-06-19T18:57:14Z</time>
      </trkpt>
      <trkpt lat="45.87601" lon="4.79471">
        <ele>300</ele>
        <time>2015-06-19T18:57:20Z</time>
      </trkpt>
      <trkpt lat="45.87587" lon="4.79459">
        <ele>309</ele>
        <time>2015-06-19T18:57:32Z</time>
      </trkpt>
      <trkpt lat="45.87584" lon="4.79449">
        <ele>309</ele>
        <time>2015-06-19T18:57:34Z</time>
      </trkpt>
      <trkpt lat="45.87581" lon="4.79442">
        <ele>310</ele>
        <time>2015-06-19T18:57:36Z</time>
      </trkpt>
      <trkpt lat="45.87578" lon="4.79431">
        <ele>310</ele>
        <time>2015-06-19T18:57:39Z</time>
      </trkpt>
      <trkpt lat="45.87578" lon="4.79416">
        <ele>309</ele>
        <time>2015-06-19T18:57:43Z</time>
      </trkpt>
      <trkpt lat="45.87575" lon="4.79401">
        <ele>308</ele>
        <time>2015-06-19T18:57:47Z</time>
      </trkpt>
      <trkpt lat="45.87567" lon="4.79376">
        <ele>309</ele>
        <time>2015-06-19T18:57:53Z</time>
      </trkpt>
      <trkpt lat="45.87541" lon="4.79303">
        <ele>313</ele>
        <time>2015-06-19T18:58:13Z</time>
      </trkpt>
      <trkpt lat="45.87516" lon="4.79251">
        <ele>309</ele>
        <time>2015-06-19T18:58:29Z</time>
      </trkpt>
      <trkpt lat="45.87507" lon="4.79229">
        <ele>314</ele>
        <time>2015-06-19T18:58:35Z</time>
      </trkpt>
      <trkpt lat="45.87498" lon="4.79216">
        <ele>313</ele>
        <time>2015-06-19T18:58:38Z</time>
      </trkpt>
      <trkpt lat="45.87494" lon="4.79212">
        <ele>312</ele>
        <time>2015-06-19T18:58:40Z</time>
      </trkpt>
      <trkpt lat="45.87489" lon="4.79203">
        <ele>312</ele>
        <time>2015-06-19T18:58:43Z</time>
      </trkpt>
      <trkpt lat="45.87485" lon="4.79198">
        <ele>312</ele>
        <time>2015-06-19T18:58:45Z</time>
      </trkpt>
      <trkpt lat="45.8748" lon="4.79193">
        <ele>313</ele>
        <time>2015-06-19T18:58:47Z</time>
      </trkpt>
      <trkpt lat="45.87455" lon="4.79174">
        <ele>316</ele>
        <time>2015-06-19T18:58:56Z</time>
      </trkpt>
      <trkpt lat="45.8745" lon="4.79175">
        <ele>318</ele>
        <time>2015-06-19T18:58:59Z</time>
      </trkpt>
      <trkpt lat="45.8744" lon="4.79171">
        <ele>319</ele>
        <time>2015-06-19T18:59:04Z</time>
      </trkpt>
      <trkpt lat="45.87435" lon="4.79168">
        <ele>320</ele>
        <time>2015-06-19T18:59:07Z</time>
      </trkpt>
      <trkpt lat="45.8743" lon="4.79168">
        <ele>319</ele>
        <time>2015-06-19T18:59:09Z</time>
      </trkpt>
      <trkpt lat="45.87425" lon="4.79168">
        <ele>318</ele>
        <time>2015-06-19T18:59:11Z</time>
      </trkpt>
      <trkpt lat="45.87419" lon="4.79169">
        <ele>317</ele>
        <time>2015-06-19T18:59:13Z</time>
      </trkpt>
      <trkpt lat="45.8741" lon="4.79165">
        <ele>317</ele>
        <time>2015-06-19T18:59:18Z</time>
      </trkpt>
      <trkpt lat="45.87401" lon="4.79161">
        <ele>317</ele>
        <time>2015-06-19T18:59:23Z</time>
      </trkpt>
      <trkpt lat="45.87381" lon="4.79149">
        <ele>324</ele>
        <time>2015-06-19T18:59:31Z</time>
      </trkpt>
      <trkpt lat="45.87375" lon="4.79142">
        <ele>325</ele>
        <time>2015-06-19T18:59:33Z</time>
      </trkpt>
      <trkpt lat="45.87369" lon="4.79134">
        <ele>325</ele>
        <time>2015-06-19T18:59:36Z</time>
      </trkpt>
      <trkpt lat="45.87364" lon="4.79131">
        <ele>325</ele>
        <time>2015-06-19T18:59:38Z</time>
      </trkpt>
      <trkpt lat="45.8734" lon="4.79125">
        <ele>324</ele>
        <time>2015-06-19T18:59:48Z</time>
      </trkpt>
      <trkpt lat="45.87329" lon="4.79115">
        <ele>324</ele>
        <time>2015-06-19T18:59:51Z</time>
      </trkpt>
      <trkpt lat="45.87316" lon="4.79093">
        <ele>323</ele>
        <time>2015-06-19T19:00:00Z</time>
      </trkpt>
      <trkpt lat="45.87312" lon="4.79087">
        <ele>323</ele>
        <time>2015-06-19T19:00:04Z</time>
      </trkpt>
      <trkpt lat="45.87304" lon="4.79074">
        <ele>322</ele>
        <time>2015-06-19T19:00:08Z</time>
      </trkpt>
      <trkpt lat="45.87263" lon="4.79049">
        <ele>318</ele>
        <time>2015-06-19T19:00:21Z</time>
      </trkpt>
      <trkpt lat="45.8726" lon="4.79049">
        <ele>318</ele>
        <time>2015-06-19T19:00:23Z</time>
      </trkpt>
      <trkpt lat="45.87255" lon="4.79047">
        <ele>317</ele>
        <time>2015-06-19T19:00:27Z</time>
      </trkpt>
      <trkpt lat="45.87253" lon="4.7904">
        <ele>317</ele>
        <time>2015-06-19T19:00:31Z</time>
      </trkpt>
      <trkpt lat="45.87252" lon="4.79026">
        <ele>317</ele>
        <time>2015-06-19T19:00:34Z</time>
      </trkpt>
      <trkpt lat="45.87247" lon="4.79022">
        <ele>319</ele>
        <time>2015-06-19T19:00:37Z</time>
      </trkpt>
      <trkpt lat="45.87241" lon="4.79018">
        <ele>320</ele>
        <time>2015-06-19T19:00:40Z</time>
      </trkpt>
      <trkpt lat="45.87246" lon="4.79014">
        <ele>322</ele>
        <time>2015-06-19T19:00:44Z</time>
      </trkpt>
      <trkpt lat="45.87235" lon="4.79009">
        <ele>324</ele>
        <time>2015-06-19T19:00:51Z</time>
      </trkpt>
      <trkpt lat="45.87221" lon="4.79008">
        <ele>326</ele>
        <time>2015-06-19T19:00:55Z</time>
      </trkpt>
      <trkpt lat="45.87214" lon="4.79009">
        <ele>327</ele>
        <time>2015-06-19T19:00:57Z</time>
      </trkpt>
      <trkpt lat="45.87203" lon="4.79008">
        <ele>326</ele>
        <time>2015-06-19T19:01:01Z</time>
      </trkpt>
      <trkpt lat="45.87169" lon="4.79009">
        <ele>323</ele>
        <time>2015-06-19T19:01:12Z</time>
      </trkpt>
      <trkpt lat="45.87163" lon="4.79009">
        <ele>323</ele>
        <time>2015-06-19T19:01:14Z</time>
      </trkpt>
      <trkpt lat="45.87139" lon="4.79005">
        <ele>326</ele>
        <time>2015-06-19T19:01:27Z</time>
      </trkpt>
      <trkpt lat="45.87129" lon="4.79005">
        <ele>325</ele>
        <time>2015-06-19T19:01:33Z</time>
      </trkpt>
      <trkpt lat="45.87119" lon="4.79012">
        <ele>325</ele>
        <time>2015-06-19T19:01:40Z</time>
      </trkpt>
      <trkpt lat="45.87107" lon="4.79019">
        <ele>325</ele>
        <time>2015-06-19T19:01:44Z</time>
      </trkpt>
      <trkpt lat="45.87061" lon="4.79041">
        <ele>338</ele>
        <time>2015-06-19T19:02:15Z</time>
      </trkpt>
      <trkpt lat="45.87056" lon="4.79047">
        <ele>339</ele>
        <time>2015-06-19T19:02:17Z</time>
      </trkpt>
      <trkpt lat="45.87051" lon="4.7905">
        <ele>339</ele>
        <time>2015-06-19T19:02:19Z</time>
      </trkpt>
      <trkpt lat="45.8704" lon="4.79051">
        <ele>340</ele>
        <time>2015-06-19T19:02:25Z</time>
      </trkpt>
      <trkpt lat="45.87037" lon="4.79055">
        <ele>341</ele>
        <time>2015-06-19T19:02:29Z</time>
      </trkpt>
      <trkpt lat="45.87032" lon="4.7906">
        <ele>341</ele>
        <time>2015-06-19T19:02:33Z</time>
      </trkpt>
      <trkpt lat="45.86999" lon="4.79073">
        <ele>343</ele>
        <time>2015-06-19T19:02:44Z</time>
      </trkpt>
      <trkpt lat="45.8698" lon="4.79087">
        <ele>344</ele>
        <time>2015-06-19T19:02:46Z</time>
      </trkpt>
      <trkpt lat="45.86986" lon="4.79078">
        <ele>344</ele>
        <time>2015-06-19T19:02:49Z</time>
      </trkpt>
      <trkpt lat="45.8698" lon="4.79072">
        <ele>344</ele>
        <time>2015-06-19T19:02:51Z</time>
      </trkpt>
      <trkpt lat="45.86982" lon="4.79076">
        <ele>348</ele>
        <time>2015-06-19T19:03:02Z</time>
      </trkpt>
      <trkpt lat="45.86965" lon="4.79084">
        <ele>349</ele>
        <time>2015-06-19T19:03:09Z</time>
      </trkpt>
      <trkpt lat="45.86967" lon="4.79078">
        <ele>350</ele>
        <time>2015-06-19T19:03:16Z</time>
      </trkpt>
      <trkpt lat="45.86982" lon="4.79081">
        <ele>345</ele>
        <time>2015-06-19T19:03:22Z</time>
      </trkpt>
      <trkpt lat="45.86979" lon="4.79081">
        <ele>340</ele>
        <time>2015-06-19T19:03:25Z</time>
      </trkpt>
      <trkpt lat="45.86972" lon="4.79072">
        <ele>336</ele>
        <time>2015-06-19T19:03:39Z</time>
      </trkpt>
      <trkpt lat="45.86969" lon="4.79065">
        <ele>336</ele>
        <time>2015-06-19T19:03:42Z</time>
      </trkpt>
      <trkpt lat="45.86972" lon="4.79059">
        <ele>336</ele>
        <time>2015-06-19T19:03:43Z</time>
      </trkpt>
      <trkpt lat="45.86971" lon="4.79053">
        <ele>340</ele>
        <time>2015-06-19T19:03:54Z</time>
      </trkpt>
      <trkpt lat="45.86976" lon="4.79054">
        <ele>341</ele>
        <time>2015-06-19T19:03:58Z</time>
      </trkpt>
      <trkpt lat="45.86979" lon="4.79046">
        <ele>347</ele>
        <time>2015-06-19T19:04:09Z</time>
      </trkpt>
      <trkpt lat="45.86983" lon="4.79024">
        <ele>354</ele>
        <time>2015-06-19T19:04:17Z</time>
      </trkpt>
      <trkpt lat="45.86981" lon="4.79014">
        <ele>355</ele>
        <time>2015-06-19T19:04:20Z</time>
      </trkpt>
      <trkpt lat="45.86979" lon="4.79008">
        <ele>355</ele>
        <time>2015-06-19T19:04:22Z</time>
      </trkpt>
      <trkpt lat="45.86973" lon="4.78987">
        <ele>358</ele>
        <time>2015-06-19T19:04:30Z</time>
      </trkpt>
      <trkpt lat="45.86971" lon="4.78978">
        <ele>359</ele>
        <time>2015-06-19T19:04:32Z</time>
      </trkpt>
      <trkpt lat="45.86963" lon="4.7895">
        <ele>357</ele>
        <time>2015-06-19T19:04:39Z</time>
      </trkpt>
      <trkpt lat="45.86963" lon="4.78942">
        <ele>358</ele>
        <time>2015-06-19T19:04:42Z</time>
      </trkpt>
      <trkpt lat="45.86989" lon="4.78882">
        <ele>364</ele>
        <time>2015-06-19T19:05:00Z</time>
      </trkpt>
      <trkpt lat="45.87002" lon="4.78872">
        <ele>365</ele>
        <time>2015-06-19T19:05:05Z</time>
      </trkpt>
      <trkpt lat="45.87013" lon="4.78864">
        <ele>364</ele>
        <time>2015-06-19T19:05:10Z</time>
      </trkpt>
      <trkpt lat="45.87025" lon="4.78845">
        <ele>365</ele>
        <time>2015-06-19T19:05:19Z</time>
      </trkpt>
      <trkpt lat="45.87022" lon="4.7883">
        <ele>365</ele>
        <time>2015-06-19T19:05:27Z</time>
      </trkpt>
      <trkpt lat="45.87016" lon="4.78824">
        <ele>365</ele>
        <time>2015-06-19T19:05:30Z</time>
      </trkpt>
      <trkpt lat="45.87014" lon="4.78809">
        <ele>370</ele>
        <time>2015-06-19T19:05:37Z</time>
      </trkpt>
      <trkpt lat="45.87016" lon="4.78789">
        <ele>373</ele>
        <time>2015-06-19T19:05:44Z</time>
      </trkpt>
      <trkpt lat="45.8702" lon="4.78766">
        <ele>371</ele>
        <time>2015-06-19T19:05:50Z</time>
      </trkpt>
      <trkpt lat="45.87018" lon="4.7876">
        <ele>371</ele>
        <time>2015-06-19T19:05:52Z</time>
      </trkpt>
      <trkpt lat="45.87013" lon="4.78753">
        <ele>370</ele>
        <time>2015-06-19T19:05:55Z</time>
      </trkpt>
      <trkpt lat="45.87006" lon="4.7875">
        <ele>369</ele>
        <time>2015-06-19T19:05:58Z</time>
      </trkpt>
      <trkpt lat="45.87" lon="4.78751">
        <ele>370</ele>
        <time>2015-06-19T19:06:01Z</time>
      </trkpt>
      <trkpt lat="45.86998" lon="4.78749">
        <ele>370</ele>
        <time>2015-06-19T19:06:02Z</time>
      </trkpt>
      <trkpt lat="45.86994" lon="4.7875">
        <ele>370</ele>
        <time>2015-06-19T19:06:04Z</time>
      </trkpt>
      <trkpt lat="45.86985" lon="4.78752">
        <ele>372</ele>
        <time>2015-06-19T19:06:09Z</time>
      </trkpt>
      <trkpt lat="45.86974" lon="4.78749">
        <ele>373</ele>
        <time>2015-06-19T19:06:15Z</time>
      </trkpt>
      <trkpt lat="45.86964" lon="4.78755">
        <ele>375</ele>
        <time>2015-06-19T19:06:22Z</time>
      </trkpt>
      <trkpt lat="45.86965" lon="4.78757">
        <ele>379</ele>
        <time>2015-06-19T19:06:32Z</time>
      </trkpt>
      <trkpt lat="45.86929" lon="4.78771">
        <ele>389</ele>
        <time>2015-06-19T19:06:46Z</time>
      </trkpt>
      <trkpt lat="45.86924" lon="4.78772">
        <ele>389</ele>
        <time>2015-06-19T19:06:48Z</time>
      </trkpt>
      <trkpt lat="45.86918" lon="4.78774">
        <ele>388</ele>
        <time>2015-06-19T19:06:51Z</time>
      </trkpt>
      <trkpt lat="45.869" lon="4.7878">
        <ele>390</ele>
        <time>2015-06-19T19:06:57Z</time>
      </trkpt>
      <trkpt lat="45.86879" lon="4.7879">
        <ele>391</ele>
        <time>2015-06-19T19:07:09Z</time>
      </trkpt>
      <trkpt lat="45.86813" lon="4.7883">
        <ele>402</ele>
        <time>2015-06-19T19:07:42Z</time>
      </trkpt>
      <trkpt lat="45.86806" lon="4.78833">
        <ele>402</ele>
        <time>2015-06-19T19:07:46Z</time>
      </trkpt>
      <trkpt lat="45.86804" lon="4.78832">
        <ele>408</ele>
        <time>2015-06-19T19:07:52Z</time>
      </trkpt>
      <trkpt lat="45.86787" lon="4.7883">
        <ele>411</ele>
        <time>2015-06-19T19:08:00Z</time>
      </trkpt>
      <trkpt lat="45.8678" lon="4.78831">
        <ele>411</ele>
        <time>2015-06-19T19:08:02Z</time>
      </trkpt>
      <trkpt lat="45.86778" lon="4.78837">
        <ele>413</ele>
        <time>2015-06-19T19:08:08Z</time>
      </trkpt>
      <trkpt lat="45.86777" lon="4.78853">
        <ele>414</ele>
        <time>2015-06-19T19:08:13Z</time>
      </trkpt>
      <trkpt lat="45.86772" lon="4.78874">
        <ele>413</ele>
        <time>2015-06-19T19:08:19Z</time>
      </trkpt>
      <trkpt lat="45.8677" lon="4.78877">
        <ele>413</ele>
        <time>2015-06-19T19:08:20Z</time>
      </trkpt>
      <trkpt lat="45.86769" lon="4.7888">
        <ele>413</ele>
        <time>2015-06-19T19:08:21Z</time>
      </trkpt>
      <trkpt lat="45.86765" lon="4.78909">
        <ele>411</ele>
        <time>2015-06-19T19:08:29Z</time>
      </trkpt>
      <trkpt lat="45.86763" lon="4.78903">
        <ele>412</ele>
        <time>2015-06-19T19:08:35Z</time>
      </trkpt>
      <trkpt lat="45.86749" lon="4.78893">
        <ele>413</ele>
        <time>2015-06-19T19:08:40Z</time>
      </trkpt>
      <trkpt lat="45.86741" lon="4.78884">
        <ele>415</ele>
        <time>2015-06-19T19:08:43Z</time>
      </trkpt>
      <trkpt lat="45.86739" lon="4.7888">
        <ele>415</ele>
        <time>2015-06-19T19:08:44Z</time>
      </trkpt>
      <trkpt lat="45.86736" lon="4.78877">
        <ele>416</ele>
        <time>2015-06-19T19:08:46Z</time>
      </trkpt>
      <trkpt lat="45.86725" lon="4.78867">
        <ele>414</ele>
        <time>2015-06-19T19:08:51Z</time>
      </trkpt>
      <trkpt lat="45.86723" lon="4.78863">
        <ele>414</ele>
        <time>2015-06-19T19:08:52Z</time>
      </trkpt>
      <trkpt lat="45.86718" lon="4.78859">
        <ele>414</ele>
        <time>2015-06-19T19:08:54Z</time>
      </trkpt>
      <trkpt lat="45.86715" lon="4.78857">
        <ele>414</ele>
        <time>2015-06-19T19:08:56Z</time>
      </trkpt>
      <trkpt lat="45.86712" lon="4.78856">
        <ele>415</ele>
        <time>2015-06-19T19:08:57Z</time>
      </trkpt>
      <trkpt lat="45.86707" lon="4.78854">
        <ele>415</ele>
        <time>2015-06-19T19:08:59Z</time>
      </trkpt>
      <trkpt lat="45.86702" lon="4.78852">
        <ele>415</ele>
        <time>2015-06-19T19:09:01Z</time>
      </trkpt>
      <trkpt lat="45.86697" lon="4.7885">
        <ele>415</ele>
        <time>2015-06-19T19:09:03Z</time>
      </trkpt>
      <trkpt lat="45.86646" lon="4.7883">
        <ele>425</ele>
        <time>2015-06-19T19:09:22Z</time>
      </trkpt>
      <trkpt lat="45.8662" lon="4.78829">
        <ele>424</ele>
        <time>2015-06-19T19:09:31Z</time>
      </trkpt>
      <trkpt lat="45.86616" lon="4.78826">
        <ele>424</ele>
        <time>2015-06-19T19:09:32Z</time>
      </trkpt>
      <trkpt lat="45.86609" lon="4.78821">
        <ele>423</ele>
        <time>2015-06-19T19:09:34Z</time>
      </trkpt>
      <trkpt lat="45.8659" lon="4.788">
        <ele>421</ele>
        <time>2015-06-19T19:09:43Z</time>
      </trkpt>
      <trkpt lat="45.86566" lon="4.78773">
        <ele>425</ele>
        <time>2015-06-19T19:09:56Z</time>
      </trkpt>
      <trkpt lat="45.86553" lon="4.78763">
        <ele>424</ele>
        <time>2015-06-19T19:09:59Z</time>
      </trkpt>
      <trkpt lat="45.86554" lon="4.78751">
        <ele>425</ele>
        <time>2015-06-19T19:10:04Z</time>
      </trkpt>
      <trkpt lat="45.86552" lon="4.78741">
        <ele>427</ele>
        <time>2015-06-19T19:10:07Z</time>
      </trkpt>
      <trkpt lat="45.86544" lon="4.7873">
        <ele>430</ele>
        <time>2015-06-19T19:10:11Z</time>
      </trkpt>
      <trkpt lat="45.86539" lon="4.78725">
        <ele>431</ele>
        <time>2015-06-19T19:10:14Z</time>
      </trkpt>
      <trkpt lat="45.86537" lon="4.78718">
        <ele>431</ele>
        <time>2015-06-19T19:10:17Z</time>
      </trkpt>
      <trkpt lat="45.86535" lon="4.7871">
        <ele>435</ele>
        <time>2015-06-19T19:10:21Z</time>
      </trkpt>
      <trkpt lat="45.86526" lon="4.78702">
        <ele>438</ele>
        <time>2015-06-19T19:10:26Z</time>
      </trkpt>
      <trkpt lat="45.86514" lon="4.78695">
        <ele>439</ele>
        <time>2015-06-19T19:10:31Z</time>
      </trkpt>
      <trkpt lat="45.86495" lon="4.7868">
        <ele>445</ele>
        <time>2015-06-19T19:10:38Z</time>
      </trkpt>
      <trkpt lat="45.86493" lon="4.78676">
        <ele>445</ele>
        <time>2015-06-19T19:10:40Z</time>
      </trkpt>
      <trkpt lat="45.8649" lon="4.78667">
        <ele>444</ele>
        <time>2015-06-19T19:10:43Z</time>
      </trkpt>
      <trkpt lat="45.86483" lon="4.78655">
        <ele>442</ele>
        <time>2015-06-19T19:10:48Z</time>
      </trkpt>
      <trkpt lat="45.86478" lon="4.78653">
        <ele>443</ele>
        <time>2015-06-19T19:10:52Z</time>
      </trkpt>
      <trkpt lat="45.86426" lon="4.78653">
        <ele>441</ele>
        <time>2015-06-19T19:11:13Z</time>
      </trkpt>
      <trkpt lat="45.86424" lon="4.78655">
        <ele>442</ele>
        <time>2015-06-19T19:11:14Z</time>
      </trkpt>
      <trkpt lat="45.86408" lon="4.78659">
        <ele>439</ele>
        <time>2015-06-19T19:11:22Z</time>
      </trkpt>
      <trkpt lat="45.86392" lon="4.78659">
        <ele>438</ele>
        <time>2015-06-19T19:11:28Z</time>
      </trkpt>
      <trkpt lat="45.86389" lon="4.7865">
        <ele>444</ele>
        <time>2015-06-19T19:11:35Z</time>
      </trkpt>
      <trkpt lat="45.86378" lon="4.78647">
        <ele>445</ele>
        <time>2015-06-19T19:11:38Z</time>
      </trkpt>
      <trkpt lat="45.86276" lon="4.78611">
        <ele>441</ele>
        <time>2015-06-19T19:12:06Z</time>
      </trkpt>
      <trkpt lat="45.86271" lon="4.78609">
        <ele>441</ele>
        <time>2015-06-19T19:12:07Z</time>
      </trkpt>
      <trkpt lat="45.86262" lon="4.78605">
        <ele>444</ele>
        <time>2015-06-19T19:12:11Z</time>
      </trkpt>
      <trkpt lat="45.86249" lon="4.78594">
        <ele>448</ele>
        <time>2015-06-19T19:12:17Z</time>
      </trkpt>
      <trkpt lat="45.86217" lon="4.78579">
        <ele>451</ele>
        <time>2015-06-19T19:12:26Z</time>
      </trkpt>
      <trkpt lat="45.86193" lon="4.78554">
        <ele>459</ele>
        <time>2015-06-19T19:12:38Z</time>
      </trkpt>
      <trkpt lat="45.8619" lon="4.78546">
        <ele>459</ele>
        <time>2015-06-19T19:12:41Z</time>
      </trkpt>
      <trkpt lat="45.86189" lon="4.78537">
        <ele>459</ele>
        <time>2015-06-19T19:12:44Z</time>
      </trkpt>
      <trkpt lat="45.86189" lon="4.78521">
        <ele>457</ele>
        <time>2015-06-19T19:12:49Z</time>
      </trkpt>
      <trkpt lat="45.86181" lon="4.78501">
        <ele>462</ele>
        <time>2015-06-19T19:13:04Z</time>
      </trkpt>
      <trkpt lat="45.8618" lon="4.78493">
        <ele>462</ele>
        <time>2015-06-19T19:13:08Z</time>
      </trkpt>
      <trkpt lat="45.86177" lon="4.78488">
        <ele>463</ele>
        <time>2015-06-19T19:13:12Z</time>
      </trkpt>
      <trkpt lat="45.86173" lon="4.78483">
        <ele>465</ele>
        <time>2015-06-19T19:13:16Z</time>
      </trkpt>
      <trkpt lat="45.86172" lon="4.78476">
        <ele>466</ele>
        <time>2015-06-19T19:13:19Z</time>
      </trkpt>
      <trkpt lat="45.86175" lon="4.78469">
        <ele>467</ele>
        <time>2015-06-19T19:13:22Z</time>
      </trkpt>
      <trkpt lat="45.86172" lon="4.78464">
        <ele>467</ele>
        <time>2015-06-19T19:13:26Z</time>
      </trkpt>
      <trkpt lat="45.86179" lon="4.78473">
        <ele>466</ele>
        <time>2015-06-19T19:13:39Z</time>
      </trkpt>
      <trkpt lat="45.86182" lon="4.7848">
        <ele>465</ele>
        <time>2015-06-19T19:13:42Z</time>
      </trkpt>
      <trkpt lat="45.86179" lon="4.78487">
        <ele>460</ele>
        <time>2015-06-19T19:13:44Z</time>
      </trkpt>
      <trkpt lat="45.86151" lon="4.78516">
        <ele>451</ele>
        <time>2015-06-19T19:13:54Z</time>
      </trkpt>
      <trkpt lat="45.86145" lon="4.78522">
        <ele>451</ele>
        <time>2015-06-19T19:13:56Z</time>
      </trkpt>
      <trkpt lat="45.86138" lon="4.78525">
        <ele>451</ele>
        <time>2015-06-19T19:13:58Z</time>
      </trkpt>
      <trkpt lat="45.86131" lon="4.78519">
        <ele>451</ele>
        <time>2015-06-19T19:14:01Z</time>
      </trkpt>
      <trkpt lat="45.86129" lon="4.78518">
        <ele>452</ele>
        <time>2015-06-19T19:14:02Z</time>
      </trkpt>
      <trkpt lat="45.86119" lon="4.78518">
        <ele>456</ele>
        <time>2015-06-19T19:14:07Z</time>
      </trkpt>
      <trkpt lat="45.86094" lon="4.7851">
        <ele>468</ele>
        <time>2015-06-19T19:14:19Z</time>
      </trkpt>
      <trkpt lat="45.86097" lon="4.78502">
        <ele>473</ele>
        <time>2015-06-19T19:14:24Z</time>
      </trkpt>
      <trkpt lat="45.86105" lon="4.78492">
        <ele>475</ele>
        <time>2015-06-19T19:14:29Z</time>
      </trkpt>
      <trkpt lat="45.86115" lon="4.78483">
        <ele>475</ele>
        <time>2015-06-19T19:14:35Z</time>
      </trkpt>
      <trkpt lat="45.86118" lon="4.78478">
        <ele>475</ele>
        <time>2015-06-19T19:14:38Z</time>
      </trkpt>
      <trkpt lat="45.86122" lon="4.78471">
        <ele>473</ele>
        <time>2015-06-19T19:14:42Z</time>
      </trkpt>
      <trkpt lat="45.86122" lon="4.78456">
        <ele>470</ele>
        <time>2015-06-19T19:14:47Z</time>
      </trkpt>
      <trkpt lat="45.86121" lon="4.78448">
        <ele>470</ele>
        <time>2015-06-19T19:14:49Z</time>
      </trkpt>
      <trkpt lat="45.86122" lon="4.78441">
        <ele>470</ele>
        <time>2015-06-19T19:14:51Z</time>
      </trkpt>
      <trkpt lat="45.86125" lon="4.78435">
        <ele>471</ele>
        <time>2015-06-19T19:14:54Z</time>
      </trkpt>
      <trkpt lat="45.86124" lon="4.78426">
        <ele>473</ele>
        <time>2015-06-19T19:14:59Z</time>
      </trkpt>
      <trkpt lat="45.86118" lon="4.78373">
        <ele>477</ele>
        <time>2015-06-19T19:15:17Z</time>
      </trkpt>
      <trkpt lat="45.86118" lon="4.78363">
        <ele>477</ele>
        <time>2015-06-19T19:15:19Z</time>
      </trkpt>
      <trkpt lat="45.86118" lon="4.78341">
        <ele>476</ele>
        <time>2015-06-19T19:15:23Z</time>
      </trkpt>
      <trkpt lat="45.86113" lon="4.78324">
        <ele>474</ele>
        <time>2015-06-19T19:15:27Z</time>
      </trkpt>
      <trkpt lat="45.86108" lon="4.78311">
        <ele>480</ele>
        <time>2015-06-19T19:15:35Z</time>
      </trkpt>
      <trkpt lat="45.86104" lon="4.78307">
        <ele>480</ele>
        <time>2015-06-19T19:15:37Z</time>
      </trkpt>
      <trkpt lat="45.861" lon="4.78304">
        <ele>480</ele>
        <time>2015-06-19T19:15:39Z</time>
      </trkpt>
      <trkpt lat="45.86089" lon="4.78299">
        <ele>484</ele>
        <time>2015-06-19T19:15:46Z</time>
      </trkpt>
      <trkpt lat="45.86063" lon="4.7827">
        <ele>496</ele>
        <time>2015-06-19T19:16:02Z</time>
      </trkpt>
      <trkpt lat="45.86055" lon="4.78267">
        <ele>496</ele>
        <time>2015-06-19T19:16:04Z</time>
      </trkpt>
      <trkpt lat="45.85998" lon="4.78235">
        <ele>490</ele>
        <time>2015-06-19T19:16:24Z</time>
      </trkpt>
      <trkpt lat="45.85971" lon="4.78225">
        <ele>481</ele>
        <time>2015-06-19T19:16:49Z</time>
      </trkpt>
      <trkpt lat="45.85953" lon="4.78215">
        <ele>489</ele>
        <time>2015-06-19T19:17:20Z</time>
      </trkpt>
      <trkpt lat="45.85955" lon="4.78222">
        <ele>489</ele>
        <time>2015-06-19T19:17:34Z</time>
      </trkpt>
      <trkpt lat="45.85949" lon="4.78222">
        <ele>489</ele>
        <time>2015-06-19T19:17:47Z</time>
      </trkpt>
      <trkpt lat="45.85949" lon="4.78226">
        <ele>489</ele>
        <time>2015-06-19T19:17:54Z</time>
      </trkpt>
      <trkpt lat="45.85943" lon="4.78223">
        <ele>488</ele>
        <time>2015-06-19T19:17:59Z</time>
      </trkpt>
      <trkpt lat="45.859" lon="4.78229">
        <ele>490</ele>
        <time>2015-06-19T19:18:18Z</time>
      </trkpt>
      <trkpt lat="45.85793" lon="4.78209">
        <ele>484</ele>
        <time>2015-06-19T19:18:48Z</time>
      </trkpt>
      <trkpt lat="45.85783" lon="4.78208">
        <ele>479</ele>
        <time>2015-06-19T19:19:18Z</time>
      </trkpt>
      <trkpt lat="45.85779" lon="4.78205">
        <ele>476</ele>
        <time>2015-06-19T19:19:27Z</time>
      </trkpt>
      <trkpt lat="45.85777" lon="4.78197">
        <ele>475</ele>
        <time>2015-06-19T19:19:33Z</time>
      </trkpt>
      <trkpt lat="45.85774" lon="4.78197">
        <ele>479</ele>
        <time>2015-06-19T19:19:57Z</time>
      </trkpt>
      <trkpt lat="45.85773" lon="4.78202">
        <ele>482</ele>
        <time>2015-06-19T19:20:43Z</time>
      </trkpt>
      <trkpt lat="45.8576" lon="4.78215">
        <ele>486</ele>
        <time>2015-06-19T19:20:53Z</time>
      </trkpt>
      <trkpt lat="45.85754" lon="4.78221">
        <ele>486</ele>
        <time>2015-06-19T19:20:55Z</time>
      </trkpt>
      <trkpt lat="45.85749" lon="4.78226">
        <ele>485</ele>
        <time>2015-06-19T19:20:58Z</time>
      </trkpt>
      <trkpt lat="45.8573" lon="4.78242">
        <ele>484</ele>
        <time>2015-06-19T19:21:07Z</time>
      </trkpt>
      <trkpt lat="45.85731" lon="4.78248">
        <ele>484</ele>
        <time>2015-06-19T19:21:25Z</time>
      </trkpt>
      <trkpt lat="45.85719" lon="4.78256">
        <ele>487</ele>
        <time>2015-06-19T19:21:29Z</time>
      </trkpt>
      <trkpt lat="45.85697" lon="4.78265">
        <ele>490</ele>
        <time>2015-06-19T19:21:38Z</time>
      </trkpt>
      <trkpt lat="45.85692" lon="4.78259">
        <ele>490</ele>
        <time>2015-06-19T19:21:40Z</time>
      </trkpt>
      <trkpt lat="45.85692" lon="4.78247">
        <ele>491</ele>
        <time>2015-06-19T19:21:44Z</time>
      </trkpt>
      <trkpt lat="45.85699" lon="4.7822">
        <ele>497</ele>
        <time>2015-06-19T19:21:55Z</time>
      </trkpt>
      <trkpt lat="45.85711" lon="4.78203">
        <ele>494</ele>
        <time>2015-06-19T19:22:00Z</time>
      </trkpt>
      <trkpt lat="45.85708" lon="4.78198">
        <ele>492</ele>
        <time>2015-06-19T19:22:02Z</time>
      </trkpt>
      <trkpt lat="45.85706" lon="4.78195">
        <ele>492</ele>
        <time>2015-06-19T19:22:03Z</time>
      </trkpt>
      <trkpt lat="45.85699" lon="4.7819">
        <ele>489</ele>
        <time>2015-06-19T19:22:05Z</time>
      </trkpt>
      <trkpt lat="45.85669" lon="4.78146">
        <ele>482</ele>
        <time>2015-06-19T19:22:17Z</time>
      </trkpt>
      <trkpt lat="45.85666" lon="4.78136">
        <ele>483</ele>
        <time>2015-06-19T19:22:19Z</time>
      </trkpt>
      <trkpt lat="45.85648" lon="4.78087">
        <ele>487</ele>
        <time>2015-06-19T19:22:30Z</time>
      </trkpt>
      <trkpt lat="45.85634" lon="4.78063">
        <ele>486</ele>
        <time>2015-06-19T19:22:37Z</time>
      </trkpt>
      <trkpt lat="45.85585" lon="4.77972">
        <ele>473</ele>
        <time>2015-06-19T19:23:04Z</time>
      </trkpt>
      <trkpt lat="45.85587" lon="4.77965">
        <ele>473</ele>
        <time>2015-06-19T19:23:06Z</time>
      </trkpt>
      <trkpt lat="45.85592" lon="4.77961">
        <ele>473</ele>
        <time>2015-06-19T19:23:08Z</time>
      </trkpt>
      <trkpt lat="45.85597" lon="4.77955">
        <ele>473</ele>
        <time>2015-06-19T19:23:11Z</time>
      </trkpt>
      <trkpt lat="45.85602" lon="4.77955">
        <ele>473</ele>
        <time>2015-06-19T19:23:12Z</time>
      </trkpt>
      <trkpt lat="45.85614" lon="4.77942">
        <ele>477</ele>
        <time>2015-06-19T19:23:16Z</time>
      </trkpt>
      <trkpt lat="45.85618" lon="4.77927">
        <ele>479</ele>
        <time>2015-06-19T19:23:20Z</time>
      </trkpt>
      <trkpt lat="45.85621" lon="4.77921">
        <ele>478</ele>
        <time>2015-06-19T19:23:23Z</time>
      </trkpt>
      <trkpt lat="45.8563" lon="4.77906">
        <ele>471</ele>
        <time>2015-06-19T19:23:45Z</time>
      </trkpt>
      <trkpt lat="45.85631" lon="4.77891">
        <ele>466</ele>
        <time>2015-06-19T19:23:50Z</time>
      </trkpt>
      <trkpt lat="45.85625" lon="4.77864">
        <ele>464</ele>
        <time>2015-06-19T19:23:57Z</time>
      </trkpt>
      <trkpt lat="45.8563" lon="4.77856">
        <ele>464</ele>
        <time>2015-06-19T19:23:59Z</time>
      </trkpt>
      <trkpt lat="45.85637" lon="4.77847">
        <ele>464</ele>
        <time>2015-06-19T19:24:03Z</time>
      </trkpt>
      <trkpt lat="45.8564" lon="4.77844">
        <ele>465</ele>
        <time>2015-06-19T19:24:05Z</time>
      </trkpt>
      <trkpt lat="45.85643" lon="4.77838">
        <ele>463</ele>
        <time>2015-06-19T19:24:08Z</time>
      </trkpt>
      <trkpt lat="45.85646" lon="4.77834">
        <ele>464</ele>
        <time>2015-06-19T19:24:10Z</time>
      </trkpt>
      <trkpt lat="45.85647" lon="4.77823">
        <ele>465</ele>
        <time>2015-06-19T19:24:18Z</time>
      </trkpt>
      <trkpt lat="45.85654" lon="4.77801">
        <ele>469</ele>
        <time>2015-06-19T19:24:26Z</time>
      </trkpt>
      <trkpt lat="45.85657" lon="4.77794">
        <ele>469</ele>
        <time>2015-06-19T19:24:28Z</time>
      </trkpt>
      <trkpt lat="45.85672" lon="4.77769">
        <ele>468</ele>
        <time>2015-06-19T19:24:36Z</time>
      </trkpt>
      <trkpt lat="45.85672" lon="4.77765">
        <ele>468</ele>
        <time>2015-06-19T19:24:37Z</time>
      </trkpt>
      <trkpt lat="45.85673" lon="4.77762">
        <ele>469</ele>
        <time>2015-06-19T19:24:38Z</time>
      </trkpt>
      <trkpt lat="45.85673" lon="4.77755">
        <ele>470</ele>
        <time>2015-06-19T19:24:40Z</time>
      </trkpt>
      <trkpt lat="45.85674" lon="4.77748">
        <ele>470</ele>
        <time>2015-06-19T19:24:42Z</time>
      </trkpt>
      <trkpt lat="45.85673" lon="4.77742">
        <ele>470</ele>
        <time>2015-06-19T19:24:44Z</time>
      </trkpt>
      <trkpt lat="45.85668" lon="4.77729">
        <ele>469</ele>
        <time>2015-06-19T19:24:48Z</time>
      </trkpt>
      <trkpt lat="45.85674" lon="4.77702">
        <ele>465</ele>
        <time>2015-06-19T19:24:58Z</time>
      </trkpt>
      <trkpt lat="45.85688" lon="4.7767">
        <ele>459</ele>
        <time>2015-06-19T19:25:11Z</time>
      </trkpt>
      <trkpt lat="45.85688" lon="4.77663">
        <ele>458</ele>
        <time>2015-06-19T19:25:13Z</time>
      </trkpt>
      <trkpt lat="45.85683" lon="4.7764">
        <ele>460</ele>
        <time>2015-06-19T19:25:18Z</time>
      </trkpt>
      <trkpt lat="45.85683" lon="4.77633">
        <ele>459</ele>
        <time>2015-06-19T19:25:20Z</time>
      </trkpt>
      <trkpt lat="45.85685" lon="4.77629">
        <ele>459</ele>
        <time>2015-06-19T19:25:21Z</time>
      </trkpt>
      <trkpt lat="45.85685" lon="4.77626">
        <ele>459</ele>
        <time>2015-06-19T19:25:22Z</time>
      </trkpt>
      <trkpt lat="45.85687" lon="4.77623">
        <ele>458</ele>
        <time>2015-06-19T19:25:23Z</time>
      </trkpt>
      <trkpt lat="45.85685" lon="4.77618">
        <ele>456</ele>
        <time>2015-06-19T19:25:26Z</time>
      </trkpt>
      <trkpt lat="45.85683" lon="4.77603">
        <ele>452</ele>
        <time>2015-06-19T19:25:32Z</time>
      </trkpt>
      <trkpt lat="45.85685" lon="4.77587">
        <ele>450</ele>
        <time>2015-06-19T19:25:36Z</time>
      </trkpt>
      <trkpt lat="45.85686" lon="4.77583">
        <ele>450</ele>
        <time>2015-06-19T19:25:37Z</time>
      </trkpt>
      <trkpt lat="45.85689" lon="4.77576">
        <ele>451</ele>
        <time>2015-06-19T19:25:40Z</time>
      </trkpt>
      <trkpt lat="45.85694" lon="4.77558">
        <ele>453</ele>
        <time>2015-06-19T19:25:46Z</time>
      </trkpt>
      <trkpt lat="45.8569" lon="4.77532">
        <ele>453</ele>
        <time>2015-06-19T19:25:55Z</time>
      </trkpt>
      <trkpt lat="45.85695" lon="4.77521">
        <ele>455</ele>
        <time>2015-06-19T19:25:58Z</time>
      </trkpt>
      <trkpt lat="45.8571" lon="4.77496">
        <ele>457</ele>
        <time>2015-06-19T19:26:06Z</time>
      </trkpt>
      <trkpt lat="45.85712" lon="4.77483">
        <ele>456</ele>
        <time>2015-06-19T19:26:12Z</time>
      </trkpt>
      <trkpt lat="45.85722" lon="4.77476">
        <ele>455</ele>
        <time>2015-06-19T19:26:14Z</time>
      </trkpt>
      <trkpt lat="45.85736" lon="4.77455">
        <ele>453</ele>
        <time>2015-06-19T19:26:19Z</time>
      </trkpt>
      <trkpt lat="45.85736" lon="4.77443">
        <ele>450</ele>
        <time>2015-06-19T19:26:24Z</time>
      </trkpt>
      <trkpt lat="45.85729" lon="4.77432">
        <ele>450</ele>
        <time>2015-06-19T19:26:28Z</time>
      </trkpt>
      <trkpt lat="45.85649" lon="4.7739">
        <ele>471</ele>
        <time>2015-06-19T19:27:02Z</time>
      </trkpt>
      <trkpt lat="45.85644" lon="4.77388">
        <ele>472</ele>
        <time>2015-06-19T19:27:09Z</time>
      </trkpt>
      <trkpt lat="45.85606" lon="4.77387">
        <ele>470</ele>
        <time>2015-06-19T19:27:24Z</time>
      </trkpt>
      <trkpt lat="45.856" lon="4.77388">
        <ele>471</ele>
        <time>2015-06-19T19:27:26Z</time>
      </trkpt>
      <trkpt lat="45.85559" lon="4.77373">
        <ele>483</ele>
        <time>2015-06-19T19:27:39Z</time>
      </trkpt>
      <trkpt lat="45.85556" lon="4.77372">
        <ele>483</ele>
        <time>2015-06-19T19:27:41Z</time>
      </trkpt>
      <trkpt lat="45.85551" lon="4.77373">
        <ele>481</ele>
        <time>2015-06-19T19:27:45Z</time>
      </trkpt>
      <trkpt lat="45.85545" lon="4.77372">
        <ele>481</ele>
        <time>2015-06-19T19:27:48Z</time>
      </trkpt>
      <trkpt lat="45.8553" lon="4.77374">
        <ele>479</ele>
        <time>2015-06-19T19:27:53Z</time>
      </trkpt>
      <trkpt lat="45.85521" lon="4.77372">
        <ele>479</ele>
        <time>2015-06-19T19:27:56Z</time>
      </trkpt>
      <trkpt lat="45.85504" lon="4.77359">
        <ele>480</ele>
        <time>2015-06-19T19:28:03Z</time>
      </trkpt>
      <trkpt lat="45.85492" lon="4.77357">
        <ele>479</ele>
        <time>2015-06-19T19:28:07Z</time>
      </trkpt>
      <trkpt lat="45.85487" lon="4.77357">
        <ele>479</ele>
        <time>2015-06-19T19:28:09Z</time>
      </trkpt>
      <trkpt lat="45.85431" lon="4.77354">
        <ele>495</ele>
        <time>2015-06-19T19:28:28Z</time>
      </trkpt>
      <trkpt lat="45.85423" lon="4.77359">
        <ele>495</ele>
        <time>2015-06-19T19:28:35Z</time>
      </trkpt>
      <trkpt lat="45.85425" lon="4.77365">
        <ele>495</ele>
        <time>2015-06-19T19:28:38Z</time>
      </trkpt>
      <trkpt lat="45.85433" lon="4.77373">
        <ele>494</ele>
        <time>2015-06-19T19:28:40Z</time>
      </trkpt>
      <trkpt lat="45.85438" lon="4.77377">
        <ele>493</ele>
        <time>2015-06-19T19:28:42Z</time>
      </trkpt>
      <trkpt lat="45.85447" lon="4.77378">
        <ele>494</ele>
        <time>2015-06-19T19:28:45Z</time>
      </trkpt>
      <trkpt lat="45.85454" lon="4.77382">
        <ele>494</ele>
        <time>2015-06-19T19:28:48Z</time>
      </trkpt>
      <trkpt lat="45.85458" lon="4.77386">
        <ele>494</ele>
        <time>2015-06-19T19:28:52Z</time>
      </trkpt>
      <trkpt lat="45.85462" lon="4.77395">
        <ele>496</ele>
        <time>2015-06-19T19:28:56Z</time>
      </trkpt>
      <trkpt lat="45.85477" lon="4.77412">
        <ele>499</ele>
        <time>2015-06-19T19:29:04Z</time>
      </trkpt>
      <trkpt lat="45.85507" lon="4.77427">
        <ele>502</ele>
        <time>2015-06-19T19:29:13Z</time>
      </trkpt>
      <trkpt lat="45.85511" lon="4.7743">
        <ele>502</ele>
        <time>2015-06-19T19:29:15Z</time>
      </trkpt>
      <trkpt lat="45.85519" lon="4.77441">
        <ele>503</ele>
        <time>2015-06-19T19:29:20Z</time>
      </trkpt>
      <trkpt lat="45.85535" lon="4.77464">
        <ele>504</ele>
        <time>2015-06-19T19:29:29Z</time>
      </trkpt>
      <trkpt lat="45.85536" lon="4.7747">
        <ele>504</ele>
        <time>2015-06-19T19:29:31Z</time>
      </trkpt>
      <trkpt lat="45.85535" lon="4.77474">
        <ele>504</ele>
        <time>2015-06-19T19:29:33Z</time>
      </trkpt>
      <trkpt lat="45.85534" lon="4.77477">
        <ele>504</ele>
        <time>2015-06-19T19:29:35Z</time>
      </trkpt>
      <trkpt lat="45.85538" lon="4.7748">
        <ele>505</ele>
        <time>2015-06-19T19:29:41Z</time>
      </trkpt>
      <trkpt lat="45.85542" lon="4.77496">
        <ele>502</ele>
        <time>2015-06-19T19:29:50Z</time>
      </trkpt>
      <trkpt lat="45.85545" lon="4.77513">
        <ele>499</ele>
        <time>2015-06-19T19:29:54Z</time>
      </trkpt>
      <trkpt lat="45.85544" lon="4.77533">
        <ele>500</ele>
        <time>2015-06-19T19:29:59Z</time>
      </trkpt>
      <trkpt lat="45.85544" lon="4.77537">
        <ele>500</ele>
        <time>2015-06-19T19:30:00Z</time>
      </trkpt>
      <trkpt lat="45.85543" lon="4.77554">
        <ele>501</ele>
        <time>2015-06-19T19:30:05Z</time>
      </trkpt>
      <trkpt lat="45.85544" lon="4.77559">
        <ele>501</ele>
        <time>2015-06-19T19:30:07Z</time>
      </trkpt>
      <trkpt lat="45.85544" lon="4.77563">
        <ele>501</ele>
        <time>2015-06-19T19:30:08Z</time>
      </trkpt>
      <trkpt lat="45.85544" lon="4.77567">
        <ele>501</ele>
        <time>2015-06-19T19:30:09Z</time>
      </trkpt>
      <trkpt lat="45.85543" lon="4.77571">
        <ele>501</ele>
        <time>2015-06-19T19:30:10Z</time>
      </trkpt>
      <trkpt lat="45.85527" lon="4.77594">
        <ele>496</ele>
        <time>2015-06-19T19:30:17Z</time>
      </trkpt>
      <trkpt lat="45.85526" lon="4.77597">
        <ele>496</ele>
        <time>2015-06-19T19:30:18Z</time>
      </trkpt>
      <trkpt lat="45.85499" lon="4.77706">
        <ele>514</ele>
        <time>2015-06-19T19:30:49Z</time>
      </trkpt>
      <trkpt lat="45.8544" lon="4.77702">
        <ele>523</ele>
        <time>2015-06-19T19:31:08Z</time>
      </trkpt>
      <trkpt lat="45.85435" lon="4.77702">
        <ele>523</ele>
        <time>2015-06-19T19:31:10Z</time>
      </trkpt>
      <trkpt lat="45.85427" lon="4.77699">
        <ele>523</ele>
        <time>2015-06-19T19:31:13Z</time>
      </trkpt>
      <trkpt lat="45.85425" lon="4.77698">
        <ele>523</ele>
        <time>2015-06-19T19:31:14Z</time>
      </trkpt>
      <trkpt lat="45.85422" lon="4.77697">
        <ele>523</ele>
        <time>2015-06-19T19:31:15Z</time>
      </trkpt>
      <trkpt lat="45.85365" lon="4.77679">
        <ele>526</ele>
        <time>2015-06-19T19:31:36Z</time>
      </trkpt>
      <trkpt lat="45.85362" lon="4.77679">
        <ele>526</ele>
        <time>2015-06-19T19:31:37Z</time>
      </trkpt>
      <trkpt lat="45.85351" lon="4.77676">
        <ele>526</ele>
        <time>2015-06-19T19:31:41Z</time>
      </trkpt>
      <trkpt lat="45.85346" lon="4.77674">
        <ele>526</ele>
        <time>2015-06-19T19:31:43Z</time>
      </trkpt>
      <trkpt lat="45.85341" lon="4.77672">
        <ele>526</ele>
        <time>2015-06-19T19:31:45Z</time>
      </trkpt>
      <trkpt lat="45.85333" lon="4.77669">
        <ele>525</ele>
        <time>2015-06-19T19:31:48Z</time>
      </trkpt>
      <trkpt lat="45.8533" lon="4.77667">
        <ele>525</ele>
        <time>2015-06-19T19:31:49Z</time>
      </trkpt>
      <trkpt lat="45.85327" lon="4.77666">
        <ele>525</ele>
        <time>2015-06-19T19:31:50Z</time>
      </trkpt>
      <trkpt lat="45.85323" lon="4.77665">
        <ele>526</ele>
        <time>2015-06-19T19:31:51Z</time>
      </trkpt>
      <trkpt lat="45.8532" lon="4.77664">
        <ele>526</ele>
        <time>2015-06-19T19:31:52Z</time>
      </trkpt>
      <trkpt lat="45.85314" lon="4.77666">
        <ele>524</ele>
        <time>2015-06-19T19:31:54Z</time>
      </trkpt>
      <trkpt lat="45.85296" lon="4.77677">
        <ele>524</ele>
        <time>2015-06-19T19:32:00Z</time>
      </trkpt>
      <trkpt lat="45.85283" lon="4.77679">
        <ele>527</ele>
        <time>2015-06-19T19:32:05Z</time>
      </trkpt>
      <trkpt lat="45.85281" lon="4.77682">
        <ele>527</ele>
        <time>2015-06-19T19:32:06Z</time>
      </trkpt>
      <trkpt lat="45.85278" lon="4.77689">
        <ele>528</ele>
        <time>2015-06-19T19:32:08Z</time>
      </trkpt>
      <trkpt lat="45.85277" lon="4.77698">
        <ele>527</ele>
        <time>2015-06-19T19:32:10Z</time>
      </trkpt>
      <trkpt lat="45.85268" lon="4.77735">
        <ele>531</ele>
        <time>2015-06-19T19:32:18Z</time>
      </trkpt>
      <trkpt lat="45.85268" lon="4.77747">
        <ele>531</ele>
        <time>2015-06-19T19:32:20Z</time>
      </trkpt>
      <trkpt lat="45.85267" lon="4.77775">
        <ele>529</ele>
        <time>2015-06-19T19:32:28Z</time>
      </trkpt>
      <trkpt lat="45.85266" lon="4.77781">
        <ele>529</ele>
        <time>2015-06-19T19:32:30Z</time>
      </trkpt>
      <trkpt lat="45.85266" lon="4.77788">
        <ele>529</ele>
        <time>2015-06-19T19:32:32Z</time>
      </trkpt>
      <trkpt lat="45.85266" lon="4.77802">
        <ele>526</ele>
        <time>2015-06-19T19:32:37Z</time>
      </trkpt>
      <trkpt lat="45.85265" lon="4.77821">
        <ele>528</ele>
        <time>2015-06-19T19:32:45Z</time>
      </trkpt>
      <trkpt lat="45.85255" lon="4.77869">
        <ele>529</ele>
        <time>2015-06-19T19:32:55Z</time>
      </trkpt>
      <trkpt lat="45.85254" lon="4.77873">
        <ele>530</ele>
        <time>2015-06-19T19:32:56Z</time>
      </trkpt>
      <trkpt lat="45.85253" lon="4.7788">
        <ele>530</ele>
        <time>2015-06-19T19:32:57Z</time>
      </trkpt>
      <trkpt lat="45.85253" lon="4.77884">
        <ele>529</ele>
        <time>2015-06-19T19:32:58Z</time>
      </trkpt>
      <trkpt lat="45.85251" lon="4.77892">
        <ele>530</ele>
        <time>2015-06-19T19:33:00Z</time>
      </trkpt>
      <trkpt lat="45.8525" lon="4.77899">
        <ele>529</ele>
        <time>2015-06-19T19:33:02Z</time>
      </trkpt>
      <trkpt lat="45.85249" lon="4.77904">
        <ele>530</ele>
        <time>2015-06-19T19:33:04Z</time>
      </trkpt>
      <trkpt lat="45.85248" lon="4.77909">
        <ele>529</ele>
        <time>2015-06-19T19:33:06Z</time>
      </trkpt>
      <trkpt lat="45.85232" lon="4.78011">
        <ele>539</ele>
        <time>2015-06-19T19:33:36Z</time>
      </trkpt>
      <trkpt lat="45.85231" lon="4.7804">
        <ele>542</ele>
        <time>2015-06-19T19:33:43Z</time>
      </trkpt>
      <trkpt lat="45.85232" lon="4.78049">
        <ele>542</ele>
        <time>2015-06-19T19:33:46Z</time>
      </trkpt>
      <trkpt lat="45.85234" lon="4.78059">
        <ele>540</ele>
        <time>2015-06-19T19:33:49Z</time>
      </trkpt>
      <trkpt lat="45.85235" lon="4.78075">
        <ele>539</ele>
        <time>2015-06-19T19:33:53Z</time>
      </trkpt>
      <trkpt lat="45.85236" lon="4.78082">
        <ele>540</ele>
        <time>2015-06-19T19:33:55Z</time>
      </trkpt>
      <trkpt lat="45.85236" lon="4.78087">
        <ele>540</ele>
        <time>2015-06-19T19:33:57Z</time>
      </trkpt>
      <trkpt lat="45.85237" lon="4.78092">
        <ele>541</ele>
        <time>2015-06-19T19:33:59Z</time>
      </trkpt>
      <trkpt lat="45.85237" lon="4.78096">
        <ele>541</ele>
        <time>2015-06-19T19:34:00Z</time>
      </trkpt>
      <trkpt lat="45.85238" lon="4.78103">
        <ele>541</ele>
        <time>2015-06-19T19:34:02Z</time>
      </trkpt>
      <trkpt lat="45.85238" lon="4.78107">
        <ele>541</ele>
        <time>2015-06-19T19:34:03Z</time>
      </trkpt>
      <trkpt lat="45.85238" lon="4.78119">
        <ele>542</ele>
        <time>2015-06-19T19:34:06Z</time>
      </trkpt>
      <trkpt lat="45.85238" lon="4.78122">
        <ele>542</ele>
        <time>2015-06-19T19:34:07Z</time>
      </trkpt>
      <trkpt lat="45.85234" lon="4.78146">
        <ele>543</ele>
        <time>2015-06-19T19:34:13Z</time>
      </trkpt>
      <trkpt lat="45.85237" lon="4.78153">
        <ele>543</ele>
        <time>2015-06-19T19:34:15Z</time>
      </trkpt>
      <trkpt lat="45.85243" lon="4.78179">
        <ele>543</ele>
        <time>2015-06-19T19:34:22Z</time>
      </trkpt>
      <trkpt lat="45.85242" lon="4.78184">
        <ele>545</ele>
        <time>2015-06-19T19:34:28Z</time>
      </trkpt>
      <trkpt lat="45.85243" lon="4.78197">
        <ele>547</ele>
        <time>2015-06-19T19:34:33Z</time>
      </trkpt>
      <trkpt lat="45.85251" lon="4.78231">
        <ele>547</ele>
        <time>2015-06-19T19:34:37Z</time>
      </trkpt>
      <trkpt lat="45.85256" lon="4.78234">
        <ele>547</ele>
        <time>2015-06-19T19:34:38Z</time>
      </trkpt>
      <trkpt lat="45.85263" lon="4.78238">
        <ele>547</ele>
        <time>2015-06-19T19:34:40Z</time>
      </trkpt>
      <trkpt lat="45.85267" lon="4.78245">
        <ele>547</ele>
        <time>2015-06-19T19:34:42Z</time>
      </trkpt>
      <trkpt lat="45.85274" lon="4.78252">
        <ele>548</ele>
        <time>2015-06-19T19:34:46Z</time>
      </trkpt>
      <trkpt lat="45.85277" lon="4.7826">
        <ele>548</ele>
        <time>2015-06-19T19:34:49Z</time>
      </trkpt>
      <trkpt lat="45.85324" lon="4.78331">
        <ele>555</ele>
        <time>2015-06-19T19:35:11Z</time>
      </trkpt>
      <trkpt lat="45.85327" lon="4.78341">
        <ele>554</ele>
        <time>2015-06-19T19:35:15Z</time>
      </trkpt>
      <trkpt lat="45.85329" lon="4.78343">
        <ele>555</ele>
        <time>2015-06-19T19:35:16Z</time>
      </trkpt>
      <trkpt lat="45.85347" lon="4.78365">
        <ele>559</ele>
        <time>2015-06-19T19:35:24Z</time>
      </trkpt>
      <trkpt lat="45.85351" lon="4.78363">
        <ele>559</ele>
        <time>2015-06-19T19:35:25Z</time>
      </trkpt>
      <trkpt lat="45.85353" lon="4.78364">
        <ele>559</ele>
        <time>2015-06-19T19:35:26Z</time>
      </trkpt>
      <trkpt lat="45.85388" lon="4.78393">
        <ele>567</ele>
        <time>2015-06-19T19:35:39Z</time>
      </trkpt>
      <trkpt lat="45.85397" lon="4.78418">
        <ele>567</ele>
        <time>2015-06-19T19:35:44Z</time>
      </trkpt>
      <trkpt lat="45.85414" lon="4.78451">
        <ele>566</ele>
        <time>2015-06-19T19:35:56Z</time>
      </trkpt>
      <trkpt lat="45.85423" lon="4.7846">
        <ele>568</ele>
        <time>2015-06-19T19:36:01Z</time>
      </trkpt>
      <trkpt lat="45.85425" lon="4.78463">
        <ele>568</ele>
        <time>2015-06-19T19:36:02Z</time>
      </trkpt>
      <trkpt lat="45.85427" lon="4.78465">
        <ele>568</ele>
        <time>2015-06-19T19:36:03Z</time>
      </trkpt>
      <trkpt lat="45.85508" lon="4.78563">
        <ele>550</ele>
        <time>2015-06-19T19:36:33Z</time>
      </trkpt>
      <trkpt lat="45.8551" lon="4.78565">
        <ele>550</ele>
        <time>2015-06-19T19:36:34Z</time>
      </trkpt>
      <trkpt lat="45.85533" lon="4.78588">
        <ele>547</ele>
        <time>2015-06-19T19:36:43Z</time>
      </trkpt>
      <trkpt lat="45.85537" lon="4.78593">
        <ele>547</ele>
        <time>2015-06-19T19:36:45Z</time>
      </trkpt>
      <trkpt lat="45.85538" lon="4.78597">
        <ele>549</ele>
        <time>2015-06-19T19:36:47Z</time>
      </trkpt>
      <trkpt lat="45.85539" lon="4.78602">
        <ele>551</ele>
        <time>2015-06-19T19:37:31Z</time>
      </trkpt>
      <trkpt lat="45.85537" lon="4.78603">
        <ele>552</ele>
        <time>2015-06-19T19:37:37Z</time>
      </trkpt>
      <trkpt lat="45.85534" lon="4.78603">
        <ele>553</ele>
        <time>2015-06-19T19:37:43Z</time>
      </trkpt>
      <trkpt lat="45.85538" lon="4.78595">
        <ele>553</ele>
        <time>2015-06-19T19:37:47Z</time>
      </trkpt>
      <trkpt lat="45.85544" lon="4.78591">
        <ele>553</ele>
        <time>2015-06-19T19:37:49Z</time>
      </trkpt>
      <trkpt lat="45.85547" lon="4.7859">
        <ele>554</ele>
        <time>2015-06-19T19:37:50Z</time>
      </trkpt>
      <trkpt lat="45.8555" lon="4.78589">
        <ele>554</ele>
        <time>2015-06-19T19:37:51Z</time>
      </trkpt>
      <trkpt lat="45.85557" lon="4.78592">
        <ele>554</ele>
        <time>2015-06-19T19:37:53Z</time>
      </trkpt>
      <trkpt lat="45.85569" lon="4.78604">
        <ele>554</ele>
        <time>2015-06-19T19:37:57Z</time>
      </trkpt>
      <trkpt lat="45.85573" lon="4.78608">
        <ele>555</ele>
        <time>2015-06-19T19:37:58Z</time>
      </trkpt>
      <trkpt lat="45.85575" lon="4.7861">
        <ele>556</ele>
        <time>2015-06-19T19:37:59Z</time>
      </trkpt>
      <trkpt lat="45.85585" lon="4.78616">
        <ele>557</ele>
        <time>2015-06-19T19:38:02Z</time>
      </trkpt>
      <trkpt lat="45.85594" lon="4.78624">
        <ele>557</ele>
        <time>2015-06-19T19:38:05Z</time>
      </trkpt>
      <trkpt lat="45.85613" lon="4.7863">
        <ele>557</ele>
        <time>2015-06-19T19:38:11Z</time>
      </trkpt>
      <trkpt lat="45.85615" lon="4.7863">
        <ele>557</ele>
        <time>2015-06-19T19:38:12Z</time>
      </trkpt>
      <trkpt lat="45.85627" lon="4.78641">
        <ele>558</ele>
        <time>2015-06-19T19:38:18Z</time>
      </trkpt>
      <trkpt lat="45.8563" lon="4.78644">
        <ele>560</ele>
        <time>2015-06-19T19:38:20Z</time>
      </trkpt>
      <trkpt lat="45.85634" lon="4.78646">
        <ele>561</ele>
        <time>2015-06-19T19:38:22Z</time>
      </trkpt>
      <trkpt lat="45.85637" lon="4.78647">
        <ele>560</ele>
        <time>2015-06-19T19:38:23Z</time>
      </trkpt>
      <trkpt lat="45.85683" lon="4.78682">
        <ele>553</ele>
        <time>2015-06-19T19:38:37Z</time>
      </trkpt>
      <trkpt lat="45.85691" lon="4.78698">
        <ele>549</ele>
        <time>2015-06-19T19:38:41Z</time>
      </trkpt>
      <trkpt lat="45.85695" lon="4.78706">
        <ele>549</ele>
        <time>2015-06-19T19:38:43Z</time>
      </trkpt>
      <trkpt lat="45.85698" lon="4.78712">
        <ele>549</ele>
        <time>2015-06-19T19:38:45Z</time>
      </trkpt>
      <trkpt lat="45.85703" lon="4.78721">
        <ele>548</ele>
        <time>2015-06-19T19:38:47Z</time>
      </trkpt>
      <trkpt lat="45.85705" lon="4.78724">
        <ele>549</ele>
        <time>2015-06-19T19:38:48Z</time>
      </trkpt>
      <trkpt lat="45.85707" lon="4.78727">
        <ele>548</ele>
        <time>2015-06-19T19:38:49Z</time>
      </trkpt>
      <trkpt lat="45.85718" lon="4.7874">
        <ele>549</ele>
        <time>2015-06-19T19:38:54Z</time>
      </trkpt>
      <trkpt lat="45.85731" lon="4.78753">
        <ele>553</ele>
        <time>2015-06-19T19:39:01Z</time>
      </trkpt>
      <trkpt lat="45.85733" lon="4.78757">
        <ele>553</ele>
        <time>2015-06-19T19:39:02Z</time>
      </trkpt>
      <trkpt lat="45.85735" lon="4.7876">
        <ele>553</ele>
        <time>2015-06-19T19:39:03Z</time>
      </trkpt>
      <trkpt lat="45.85751" lon="4.78774">
        <ele>549</ele>
        <time>2015-06-19T19:39:08Z</time>
      </trkpt>
      <trkpt lat="45.85755" lon="4.78774">
        <ele>549</ele>
        <time>2015-06-19T19:39:09Z</time>
      </trkpt>
      <trkpt lat="45.85773" lon="4.7878">
        <ele>549</ele>
        <time>2015-06-19T19:39:14Z</time>
      </trkpt>
      <trkpt lat="45.85839" lon="4.78848">
        <ele>538</ele>
        <time>2015-06-19T19:39:39Z</time>
      </trkpt>
      <trkpt lat="45.8584" lon="4.78854">
        <ele>538</ele>
        <time>2015-06-19T19:39:41Z</time>
      </trkpt>
      <trkpt lat="45.85842" lon="4.78862">
        <ele>538</ele>
        <time>2015-06-19T19:39:45Z</time>
      </trkpt>
      <trkpt lat="45.85842" lon="4.78868">
        <ele>538</ele>
        <time>2015-06-19T19:39:47Z</time>
      </trkpt>
      <trkpt lat="45.85842" lon="4.78876">
        <ele>538</ele>
        <time>2015-06-19T19:39:48Z</time>
      </trkpt>
      <trkpt lat="45.85847" lon="4.78886">
        <ele>538</ele>
        <time>2015-06-19T19:39:50Z</time>
      </trkpt>
      <trkpt lat="45.85853" lon="4.78896">
        <ele>538</ele>
        <time>2015-06-19T19:39:52Z</time>
      </trkpt>
      <trkpt lat="45.85855" lon="4.78898">
        <ele>539</ele>
        <time>2015-06-19T19:39:54Z</time>
      </trkpt>
      <trkpt lat="45.85857" lon="4.78903">
        <ele>540</ele>
        <time>2015-06-19T19:39:56Z</time>
      </trkpt>
      <trkpt lat="45.85863" lon="4.7891">
        <ele>540</ele>
        <time>2015-06-19T19:39:58Z</time>
      </trkpt>
      <trkpt lat="45.85924" lon="4.78972">
        <ele>552</ele>
        <time>2015-06-19T19:40:29Z</time>
      </trkpt>
      <trkpt lat="45.85959" lon="4.79012">
        <ele>559</ele>
        <time>2015-06-19T19:40:43Z</time>
      </trkpt>
      <trkpt lat="45.85955" lon="4.79013">
        <ele>559</ele>
        <time>2015-06-19T19:40:45Z</time>
      </trkpt>
      <trkpt lat="45.85955" lon="4.79016">
        <ele>559</ele>
        <time>2015-06-19T19:40:46Z</time>
      </trkpt>
      <trkpt lat="45.85955" lon="4.7902">
        <ele>559</ele>
        <time>2015-06-19T19:40:47Z</time>
      </trkpt>
      <trkpt lat="45.85961" lon="4.7904">
        <ele>561</ele>
        <time>2015-06-19T19:40:54Z</time>
      </trkpt>
      <trkpt lat="45.85961" lon="4.79044">
        <ele>562</ele>
        <time>2015-06-19T19:40:55Z</time>
      </trkpt>
      <trkpt lat="45.85962" lon="4.79048">
        <ele>562</ele>
        <time>2015-06-19T19:40:56Z</time>
      </trkpt>
      <trkpt lat="45.85966" lon="4.79064">
        <ele>561</ele>
        <time>2015-06-19T19:41:01Z</time>
      </trkpt>
      <trkpt lat="45.85969" lon="4.79078">
        <ele>562</ele>
        <time>2015-06-19T19:41:05Z</time>
      </trkpt>
      <trkpt lat="45.85972" lon="4.79087">
        <ele>566</ele>
        <time>2015-06-19T19:41:12Z</time>
      </trkpt>
      <trkpt lat="45.85979" lon="4.79104">
        <ele>568</ele>
        <time>2015-06-19T19:41:16Z</time>
      </trkpt>
      <trkpt lat="45.85988" lon="4.79124">
        <ele>569</ele>
        <time>2015-06-19T19:41:21Z</time>
      </trkpt>
      <trkpt lat="45.8599" lon="4.79127">
        <ele>569</ele>
        <time>2015-06-19T19:41:22Z</time>
      </trkpt>
      <trkpt lat="45.85991" lon="4.7913">
        <ele>569</ele>
        <time>2015-06-19T19:41:23Z</time>
      </trkpt>
      <trkpt lat="45.85995" lon="4.79133">
        <ele>569</ele>
        <time>2015-06-19T19:41:24Z</time>
      </trkpt>
      <trkpt lat="45.8601" lon="4.79154">
        <ele>568</ele>
        <time>2015-06-19T19:41:32Z</time>
      </trkpt>
      <trkpt lat="45.86017" lon="4.79163">
        <ele>566</ele>
        <time>2015-06-19T19:41:35Z</time>
      </trkpt>
      <trkpt lat="45.86022" lon="4.79169">
        <ele>566</ele>
        <time>2015-06-19T19:41:37Z</time>
      </trkpt>
      <trkpt lat="45.86025" lon="4.79175">
        <ele>566</ele>
        <time>2015-06-19T19:41:39Z</time>
      </trkpt>
      <trkpt lat="45.86034" lon="4.79187">
        <ele>568</ele>
        <time>2015-06-19T19:41:44Z</time>
      </trkpt>
      <trkpt lat="45.8604" lon="4.79191">
        <ele>568</ele>
        <time>2015-06-19T19:41:46Z</time>
      </trkpt>
      <trkpt lat="45.86061" lon="4.79196">
        <ele>569</ele>
        <time>2015-06-19T19:41:54Z</time>
      </trkpt>
      <trkpt lat="45.86067" lon="4.79197">
        <ele>569</ele>
        <time>2015-06-19T19:41:56Z</time>
      </trkpt>
      <trkpt lat="45.86069" lon="4.79197">
        <ele>569</ele>
        <time>2015-06-19T19:41:57Z</time>
      </trkpt>
      <trkpt lat="45.86072" lon="4.79196">
        <ele>569</ele>
        <time>2015-06-19T19:41:59Z</time>
      </trkpt>
      <trkpt lat="45.86076" lon="4.79194">
        <ele>569</ele>
        <time>2015-06-19T19:42:01Z</time>
      </trkpt>
      <trkpt lat="45.86078" lon="4.79194">
        <ele>569</ele>
        <time>2015-06-19T19:42:02Z</time>
      </trkpt>
      <trkpt lat="45.86083" lon="4.79196">
        <ele>569</ele>
        <time>2015-06-19T19:42:04Z</time>
      </trkpt>
      <trkpt lat="45.86087" lon="4.792">
        <ele>569</ele>
        <time>2015-06-19T19:42:06Z</time>
      </trkpt>
      <trkpt lat="45.86094" lon="4.79204">
        <ele>570</ele>
        <time>2015-06-19T19:42:09Z</time>
      </trkpt>
      <trkpt lat="45.86108" lon="4.79219">
        <ele>570</ele>
        <time>2015-06-19T19:42:14Z</time>
      </trkpt>
      <trkpt lat="45.86108" lon="4.79223">
        <ele>574</ele>
        <time>2015-06-19T19:42:24Z</time>
      </trkpt>
      <trkpt lat="45.8611" lon="4.7923">
        <ele>574</ele>
        <time>2015-06-19T19:42:29Z</time>
      </trkpt>
      <trkpt lat="45.86114" lon="4.79235">
        <ele>575</ele>
        <time>2015-06-19T19:42:31Z</time>
      </trkpt>
      <trkpt lat="45.86125" lon="4.79246">
        <ele>574</ele>
        <time>2015-06-19T19:42:34Z</time>
      </trkpt>
      <trkpt lat="45.86129" lon="4.79251">
        <ele>572</ele>
        <time>2015-06-19T19:42:36Z</time>
      </trkpt>
      <trkpt lat="45.86172" lon="4.79322">
        <ele>553</ele>
        <time>2015-06-19T19:43:02Z</time>
      </trkpt>
      <trkpt lat="45.86191" lon="4.7932">
        <ele>551</ele>
        <time>2015-06-19T19:43:08Z</time>
      </trkpt>
      <trkpt lat="45.86203" lon="4.79313">
        <ele>552</ele>
        <time>2015-06-19T19:43:10Z</time>
      </trkpt>
      <trkpt lat="45.86207" lon="4.7931">
        <ele>552</ele>
        <time>2015-06-19T19:43:11Z</time>
      </trkpt>
      <trkpt lat="45.86217" lon="4.79302">
        <ele>551</ele>
        <time>2015-06-19T19:43:15Z</time>
      </trkpt>
      <trkpt lat="45.86224" lon="4.79297">
        <ele>551</ele>
        <time>2015-06-19T19:43:17Z</time>
      </trkpt>
      <trkpt lat="45.86227" lon="4.79294">
        <ele>552</ele>
        <time>2015-06-19T19:43:18Z</time>
      </trkpt>
      <trkpt lat="45.86232" lon="4.79289">
        <ele>552</ele>
        <time>2015-06-19T19:43:20Z</time>
      </trkpt>
      <trkpt lat="45.86234" lon="4.79284">
        <ele>551</ele>
        <time>2015-06-19T19:43:21Z</time>
      </trkpt>
      <trkpt lat="45.86232" lon="4.79273">
        <ele>550</ele>
        <time>2015-06-19T19:43:25Z</time>
      </trkpt>
      <trkpt lat="45.86237" lon="4.79273">
        <ele>548</ele>
        <time>2015-06-19T19:43:29Z</time>
      </trkpt>
      <trkpt lat="45.86253" lon="4.79282">
        <ele>543</ele>
        <time>2015-06-19T19:43:34Z</time>
      </trkpt>
      <trkpt lat="45.86325" lon="4.79357">
        <ele>525</ele>
        <time>2015-06-19T19:44:00Z</time>
      </trkpt>
      <trkpt lat="45.86339" lon="4.79362">
        <ele>526</ele>
        <time>2015-06-19T19:44:04Z</time>
      </trkpt>
      <trkpt lat="45.86345" lon="4.79366">
        <ele>527</ele>
        <time>2015-06-19T19:44:06Z</time>
      </trkpt>
      <trkpt lat="45.86356" lon="4.79374">
        <ele>528</ele>
        <time>2015-06-19T19:44:09Z</time>
      </trkpt>
      <trkpt lat="45.86367" lon="4.79384">
        <ele>528</ele>
        <time>2015-06-19T19:44:13Z</time>
      </trkpt>
      <trkpt lat="45.86369" lon="4.79389">
        <ele>528</ele>
        <time>2015-06-19T19:44:14Z</time>
      </trkpt>
      <trkpt lat="45.86385" lon="4.79413">
        <ele>525</ele>
        <time>2015-06-19T19:44:20Z</time>
      </trkpt>
      <trkpt lat="45.86389" lon="4.79415">
        <ele>525</ele>
        <time>2015-06-19T19:44:21Z</time>
      </trkpt>
      <trkpt lat="45.86392" lon="4.79417">
        <ele>526</ele>
        <time>2015-06-19T19:44:22Z</time>
      </trkpt>
      <trkpt lat="45.86397" lon="4.79417">
        <ele>526</ele>
        <time>2015-06-19T19:44:23Z</time>
      </trkpt>
      <trkpt lat="45.86399" lon="4.7942">
        <ele>526</ele>
        <time>2015-06-19T19:44:24Z</time>
      </trkpt>
      <trkpt lat="45.8641" lon="4.7943">
        <ele>525</ele>
        <time>2015-06-19T19:44:29Z</time>
      </trkpt>
      <trkpt lat="45.865" lon="4.79499">
        <ele>510</ele>
        <time>2015-06-19T19:45:02Z</time>
      </trkpt>
      <trkpt lat="45.86568" lon="4.79579">
        <ele>496</ele>
        <time>2015-06-19T19:45:32Z</time>
      </trkpt>
      <trkpt lat="45.8657" lon="4.79582">
        <ele>496</ele>
        <time>2015-06-19T19:45:34Z</time>
      </trkpt>
      <trkpt lat="45.86586" lon="4.79676">
        <ele>492</ele>
        <time>2015-06-19T19:45:54Z</time>
      </trkpt>
      <trkpt lat="45.86581" lon="4.79687">
        <ele>492</ele>
        <time>2015-06-19T19:45:56Z</time>
      </trkpt>
      <trkpt lat="45.86578" lon="4.7969">
        <ele>492</ele>
        <time>2015-06-19T19:45:57Z</time>
      </trkpt>
      <trkpt lat="45.86574" lon="4.79693">
        <ele>493</ele>
        <time>2015-06-19T19:45:58Z</time>
      </trkpt>
      <trkpt lat="45.8657" lon="4.79694">
        <ele>493</ele>
        <time>2015-06-19T19:45:59Z</time>
      </trkpt>
      <trkpt lat="45.86486" lon="4.79689">
        <ele>489</ele>
        <time>2015-06-19T19:46:23Z</time>
      </trkpt>
      <trkpt lat="45.86461" lon="4.79689">
        <ele>485</ele>
        <time>2015-06-19T19:46:32Z</time>
      </trkpt>
      <trkpt lat="45.86451" lon="4.79695">
        <ele>485</ele>
        <time>2015-06-19T19:46:35Z</time>
      </trkpt>
      <trkpt lat="45.86441" lon="4.79698">
        <ele>485</ele>
        <time>2015-06-19T19:46:39Z</time>
      </trkpt>
      <trkpt lat="45.86335" lon="4.79715">
        <ele>478</ele>
        <time>2015-06-19T19:47:10Z</time>
      </trkpt>
      <trkpt lat="45.8632" lon="4.79712">
        <ele>476</ele>
        <time>2015-06-19T19:47:15Z</time>
      </trkpt>
      <trkpt lat="45.8631" lon="4.79715">
        <ele>476</ele>
        <time>2015-06-19T19:47:18Z</time>
      </trkpt>
      <trkpt lat="45.86307" lon="4.79716">
        <ele>476</ele>
        <time>2015-06-19T19:47:19Z</time>
      </trkpt>
      <trkpt lat="45.86271" lon="4.79721">
        <ele>472</ele>
        <time>2015-06-19T19:47:30Z</time>
      </trkpt>
      <trkpt lat="45.86268" lon="4.79721">
        <ele>472</ele>
        <time>2015-06-19T19:47:31Z</time>
      </trkpt>
      <trkpt lat="45.86265" lon="4.79722">
        <ele>472</ele>
        <time>2015-06-19T19:47:32Z</time>
      </trkpt>
      <trkpt lat="45.86256" lon="4.79727">
        <ele>472</ele>
        <time>2015-06-19T19:47:35Z</time>
      </trkpt>
      <trkpt lat="45.86228" lon="4.79753">
        <ele>469</ele>
        <time>2015-06-19T19:47:47Z</time>
      </trkpt>
      <trkpt lat="45.86227" lon="4.79757">
        <ele>469</ele>
        <time>2015-06-19T19:47:50Z</time>
      </trkpt>
      <trkpt lat="45.86229" lon="4.79764">
        <ele>468</ele>
        <time>2015-06-19T19:47:54Z</time>
      </trkpt>
      <trkpt lat="45.86233" lon="4.79766">
        <ele>467</ele>
        <time>2015-06-19T19:47:56Z</time>
      </trkpt>
      <trkpt lat="45.86275" lon="4.79795">
        <ele>457</ele>
        <time>2015-06-19T19:48:11Z</time>
      </trkpt>
      <trkpt lat="45.86276" lon="4.79806">
        <ele>457</ele>
        <time>2015-06-19T19:48:14Z</time>
      </trkpt>
      <trkpt lat="45.86277" lon="4.79815">
        <ele>457</ele>
        <time>2015-06-19T19:48:16Z</time>
      </trkpt>
      <trkpt lat="45.86282" lon="4.79841">
        <ele>455</ele>
        <time>2015-06-19T19:48:23Z</time>
      </trkpt>
      <trkpt lat="45.86283" lon="4.79847">
        <ele>452</ele>
        <time>2015-06-19T19:48:25Z</time>
      </trkpt>
      <trkpt lat="45.86282" lon="4.7985">
        <ele>451</ele>
        <time>2015-06-19T19:48:26Z</time>
      </trkpt>
      <trkpt lat="45.86283" lon="4.79855">
        <ele>450</ele>
        <time>2015-06-19T19:48:28Z</time>
      </trkpt>
      <trkpt lat="45.86295" lon="4.79866">
        <ele>447</ele>
        <time>2015-06-19T19:48:34Z</time>
      </trkpt>
      <trkpt lat="45.86322" lon="4.79854">
        <ele>444</ele>
        <time>2015-06-19T19:48:44Z</time>
      </trkpt>
      <trkpt lat="45.86325" lon="4.79853">
        <ele>444</ele>
        <time>2015-06-19T19:48:45Z</time>
      </trkpt>
      <trkpt lat="45.86327" lon="4.79853">
        <ele>444</ele>
        <time>2015-06-19T19:48:46Z</time>
      </trkpt>
      <trkpt lat="45.86331" lon="4.79852">
        <ele>444</ele>
        <time>2015-06-19T19:48:48Z</time>
      </trkpt>
      <trkpt lat="45.86339" lon="4.79852">
        <ele>443</ele>
        <time>2015-06-19T19:48:51Z</time>
      </trkpt>
      <trkpt lat="45.86341" lon="4.79851">
        <ele>443</ele>
        <time>2015-06-19T19:48:52Z</time>
      </trkpt>
      <trkpt lat="45.86347" lon="4.7985">
        <ele>442</ele>
        <time>2015-06-19T19:48:54Z</time>
      </trkpt>
      <trkpt lat="45.8638" lon="4.79856">
        <ele>449</ele>
        <time>2015-06-19T19:49:04Z</time>
      </trkpt>
      <trkpt lat="45.86393" lon="4.79859">
        <ele>448</ele>
        <time>2015-06-19T19:49:08Z</time>
      </trkpt>
      <trkpt lat="45.86396" lon="4.7986">
        <ele>448</ele>
        <time>2015-06-19T19:49:09Z</time>
      </trkpt>
      <trkpt lat="45.86403" lon="4.79863">
        <ele>448</ele>
        <time>2015-06-19T19:49:12Z</time>
      </trkpt>
      <trkpt lat="45.86414" lon="4.79868">
        <ele>447</ele>
        <time>2015-06-19T19:49:16Z</time>
      </trkpt>
      <trkpt lat="45.86416" lon="4.79869">
        <ele>447</ele>
        <time>2015-06-19T19:49:17Z</time>
      </trkpt>
      <trkpt lat="45.8642" lon="4.79872">
        <ele>447</ele>
        <time>2015-06-19T19:49:19Z</time>
      </trkpt>
      <trkpt lat="45.86423" lon="4.79874">
        <ele>447</ele>
        <time>2015-06-19T19:49:20Z</time>
      </trkpt>
      <trkpt lat="45.86429" lon="4.79878">
        <ele>447</ele>
        <time>2015-06-19T19:49:22Z</time>
      </trkpt>
      <trkpt lat="45.86435" lon="4.79882">
        <ele>447</ele>
        <time>2015-06-19T19:49:24Z</time>
      </trkpt>
      <trkpt lat="45.86438" lon="4.79883">
        <ele>447</ele>
        <time>2015-06-19T19:49:25Z</time>
      </trkpt>
      <trkpt lat="45.86442" lon="4.79885">
        <ele>447</ele>
        <time>2015-06-19T19:49:26Z</time>
      </trkpt>
      <trkpt lat="45.86458" lon="4.7989">
        <ele>447</ele>
        <time>2015-06-19T19:49:31Z</time>
      </trkpt>
      <trkpt lat="45.86463" lon="4.79893">
        <ele>447</ele>
        <time>2015-06-19T19:49:33Z</time>
      </trkpt>
      <trkpt lat="45.86503" lon="4.79907">
        <ele>442</ele>
        <time>2015-06-19T19:49:49Z</time>
      </trkpt>
      <trkpt lat="45.86509" lon="4.79909">
        <ele>443</ele>
        <time>2015-06-19T19:49:52Z</time>
      </trkpt>
      <trkpt lat="45.86512" lon="4.7991">
        <ele>443</ele>
        <time>2015-06-19T19:49:53Z</time>
      </trkpt>
      <trkpt lat="45.86517" lon="4.7991">
        <ele>443</ele>
        <time>2015-06-19T19:49:55Z</time>
      </trkpt>
      <trkpt lat="45.8652" lon="4.7991">
        <ele>442</ele>
        <time>2015-06-19T19:49:56Z</time>
      </trkpt>
      <trkpt lat="45.8656" lon="4.7991">
        <ele>442</ele>
        <time>2015-06-19T19:50:10Z</time>
      </trkpt>
      <trkpt lat="45.86563" lon="4.79909">
        <ele>444</ele>
        <time>2015-06-19T19:50:12Z</time>
      </trkpt>
      <trkpt lat="45.8657" lon="4.79905">
        <ele>447</ele>
        <time>2015-06-19T19:50:16Z</time>
      </trkpt>
      <trkpt lat="45.86593" lon="4.79916">
        <ele>454</ele>
        <time>2015-06-19T19:50:24Z</time>
      </trkpt>
      <trkpt lat="45.86619" lon="4.79933">
        <ele>453</ele>
        <time>2015-06-19T19:50:31Z</time>
      </trkpt>
      <trkpt lat="45.86621" lon="4.79933">
        <ele>453</ele>
        <time>2015-06-19T19:50:32Z</time>
      </trkpt>
      <trkpt lat="45.86635" lon="4.79939">
        <ele>455</ele>
        <time>2015-06-19T19:50:37Z</time>
      </trkpt>
      <trkpt lat="45.86648" lon="4.79946">
        <ele>454</ele>
        <time>2015-06-19T19:50:42Z</time>
      </trkpt>
      <trkpt lat="45.86654" lon="4.79952">
        <ele>453</ele>
        <time>2015-06-19T19:50:44Z</time>
      </trkpt>
      <trkpt lat="45.86659" lon="4.79958">
        <ele>453</ele>
        <time>2015-06-19T19:50:46Z</time>
      </trkpt>
      <trkpt lat="45.86671" lon="4.79972">
        <ele>452</ele>
        <time>2015-06-19T19:50:51Z</time>
      </trkpt>
      <trkpt lat="45.86673" lon="4.79975">
        <ele>452</ele>
        <time>2015-06-19T19:50:52Z</time>
      </trkpt>
      <trkpt lat="45.86675" lon="4.79978">
        <ele>452</ele>
        <time>2015-06-19T19:50:53Z</time>
      </trkpt>
      <trkpt lat="45.86684" lon="4.8">
        <ele>452</ele>
        <time>2015-06-19T19:51:00Z</time>
      </trkpt>
      <trkpt lat="45.86694" lon="4.80026">
        <ele>461</ele>
        <time>2015-06-19T19:51:11Z</time>
      </trkpt>
      <trkpt lat="45.86696" lon="4.80031">
        <ele>461</ele>
        <time>2015-06-19T19:51:13Z</time>
      </trkpt>
      <trkpt lat="45.86696" lon="4.80045">
        <ele>461</ele>
        <time>2015-06-19T19:51:16Z</time>
      </trkpt>
      <trkpt lat="45.86699" lon="4.80069">
        <ele>458</ele>
        <time>2015-06-19T19:51:18Z</time>
      </trkpt>
      <trkpt lat="45.86696" lon="4.80075">
        <ele>457</ele>
        <time>2015-06-19T19:51:19Z</time>
      </trkpt>
      <trkpt lat="45.86704" lon="4.80198">
        <ele>441</ele>
        <time>2015-06-19T19:51:42Z</time>
      </trkpt>
      <trkpt lat="45.86702" lon="4.80199">
        <ele>439</ele>
        <time>2015-06-19T19:51:45Z</time>
      </trkpt>
      <trkpt lat="45.86701" lon="4.80218">
        <ele>437</ele>
        <time>2015-06-19T19:51:50Z</time>
      </trkpt>
      <trkpt lat="45.86698" lon="4.80222">
        <ele>437</ele>
        <time>2015-06-19T19:51:51Z</time>
      </trkpt>
      <trkpt lat="45.86697" lon="4.80257">
        <ele>435</ele>
        <time>2015-06-19T19:51:59Z</time>
      </trkpt>
      <trkpt lat="45.86702" lon="4.80268">
        <ele>435</ele>
        <time>2015-06-19T19:52:02Z</time>
      </trkpt>
      <trkpt lat="45.86703" lon="4.80272">
        <ele>434</ele>
        <time>2015-06-19T19:52:04Z</time>
      </trkpt>
      <trkpt lat="45.86706" lon="4.80277">
        <ele>434</ele>
        <time>2015-06-19T19:52:06Z</time>
      </trkpt>
      <trkpt lat="45.86707" lon="4.80281">
        <ele>435</ele>
        <time>2015-06-19T19:52:08Z</time>
      </trkpt>
      <trkpt lat="45.8671" lon="4.80298">
        <ele>435</ele>
        <time>2015-06-19T19:52:12Z</time>
      </trkpt>
      <trkpt lat="45.86712" lon="4.80307">
        <ele>435</ele>
        <time>2015-06-19T19:52:14Z</time>
      </trkpt>
      <trkpt lat="45.86717" lon="4.80325">
        <ele>435</ele>
        <time>2015-06-19T19:52:17Z</time>
      </trkpt>
      <trkpt lat="45.86722" lon="4.80379">
        <ele>442</ele>
        <time>2015-06-19T19:52:27Z</time>
      </trkpt>
      <trkpt lat="45.86725" lon="4.80386">
        <ele>442</ele>
        <time>2015-06-19T19:52:28Z</time>
      </trkpt>
      <trkpt lat="45.86726" lon="4.8039">
        <ele>442</ele>
        <time>2015-06-19T19:52:29Z</time>
      </trkpt>
      <trkpt lat="45.86732" lon="4.80396">
        <ele>441</ele>
        <time>2015-06-19T19:52:31Z</time>
      </trkpt>
      <trkpt lat="45.86742" lon="4.80405">
        <ele>446</ele>
        <time>2015-06-19T19:52:35Z</time>
      </trkpt>
      <trkpt lat="45.8675" lon="4.80417">
        <ele>445</ele>
        <time>2015-06-19T19:52:38Z</time>
      </trkpt>
      <trkpt lat="45.86757" lon="4.80425">
        <ele>444</ele>
        <time>2015-06-19T19:52:41Z</time>
      </trkpt>
      <trkpt lat="45.8676" lon="4.80428">
        <ele>444</ele>
        <time>2015-06-19T19:52:43Z</time>
      </trkpt>
      <trkpt lat="45.86768" lon="4.80443">
        <ele>445</ele>
        <time>2015-06-19T19:52:51Z</time>
      </trkpt>
      <trkpt lat="45.86781" lon="4.80467">
        <ele>443</ele>
        <time>2015-06-19T19:52:57Z</time>
      </trkpt>
      <trkpt lat="45.86786" lon="4.80479">
        <ele>443</ele>
        <time>2015-06-19T19:52:59Z</time>
      </trkpt>
      <trkpt lat="45.86791" lon="4.80488">
        <ele>443</ele>
        <time>2015-06-19T19:53:01Z</time>
      </trkpt>
      <trkpt lat="45.86864" lon="4.80634">
        <ele>417</ele>
        <time>2015-06-19T19:53:32Z</time>
      </trkpt>
      <trkpt lat="45.86877" lon="4.80654">
        <ele>417</ele>
        <time>2015-06-19T19:53:38Z</time>
      </trkpt>
      <trkpt lat="45.86881" lon="4.8066">
        <ele>417</ele>
        <time>2015-06-19T19:53:40Z</time>
      </trkpt>
      <trkpt lat="45.86888" lon="4.80671">
        <ele>416</ele>
        <time>2015-06-19T19:53:43Z</time>
      </trkpt>
      <trkpt lat="45.86893" lon="4.80682">
        <ele>416</ele>
        <time>2015-06-19T19:53:46Z</time>
      </trkpt>
      <trkpt lat="45.86894" lon="4.80685">
        <ele>416</ele>
        <time>2015-06-19T19:53:47Z</time>
      </trkpt>
      <trkpt lat="45.86897" lon="4.80693">
        <ele>415</ele>
        <time>2015-06-19T19:53:49Z</time>
      </trkpt>
      <trkpt lat="45.86898" lon="4.80698">
        <ele>415</ele>
        <time>2015-06-19T19:53:50Z</time>
      </trkpt>
      <trkpt lat="45.869" lon="4.80709">
        <ele>415</ele>
        <time>2015-06-19T19:53:52Z</time>
      </trkpt>
      <trkpt lat="45.86905" lon="4.80723">
        <ele>415</ele>
        <time>2015-06-19T19:53:55Z</time>
      </trkpt>
      <trkpt lat="45.86908" lon="4.80729">
        <ele>416</ele>
        <time>2015-06-19T19:53:57Z</time>
      </trkpt>
      <trkpt lat="45.86909" lon="4.80733">
        <ele>415</ele>
        <time>2015-06-19T19:53:58Z</time>
      </trkpt>
      <trkpt lat="45.86916" lon="4.80737">
        <ele>416</ele>
        <time>2015-06-19T19:54:02Z</time>
      </trkpt>
      <trkpt lat="45.86921" lon="4.80746">
        <ele>416</ele>
        <time>2015-06-19T19:54:05Z</time>
      </trkpt>
      <trkpt lat="45.86928" lon="4.80762">
        <ele>415</ele>
        <time>2015-06-19T19:54:10Z</time>
      </trkpt>
      <trkpt lat="45.86929" lon="4.80765">
        <ele>415</ele>
        <time>2015-06-19T19:54:11Z</time>
      </trkpt>
      <trkpt lat="45.8693" lon="4.80772">
        <ele>414</ele>
        <time>2015-06-19T19:54:13Z</time>
      </trkpt>
      <trkpt lat="45.86959" lon="4.8085">
        <ele>410</ele>
        <time>2015-06-19T19:54:34Z</time>
      </trkpt>
      <trkpt lat="45.86973" lon="4.8086">
        <ele>404</ele>
        <time>2015-06-19T19:54:46Z</time>
      </trkpt>
      <trkpt lat="45.86977" lon="4.80866">
        <ele>403</ele>
        <time>2015-06-19T19:54:49Z</time>
      </trkpt>
      <trkpt lat="45.86986" lon="4.80881">
        <ele>405</ele>
        <time>2015-06-19T19:54:54Z</time>
      </trkpt>
      <trkpt lat="45.86987" lon="4.80887">
        <ele>405</ele>
        <time>2015-06-19T19:54:56Z</time>
      </trkpt>
      <trkpt lat="45.87004" lon="4.80918">
        <ele>410</ele>
        <time>2015-06-19T19:55:08Z</time>
      </trkpt>
      <trkpt lat="45.87005" lon="4.80926">
        <ele>410</ele>
        <time>2015-06-19T19:55:10Z</time>
      </trkpt>
      <trkpt lat="45.87004" lon="4.80942">
        <ele>403</ele>
        <time>2015-06-19T19:55:19Z</time>
      </trkpt>
      <trkpt lat="45.87009" lon="4.80945">
        <ele>401</ele>
        <time>2015-06-19T19:55:23Z</time>
      </trkpt>
      <trkpt lat="45.87016" lon="4.80941">
        <ele>399</ele>
        <time>2015-06-19T19:55:26Z</time>
      </trkpt>
      <trkpt lat="45.8702" lon="4.80933">
        <ele>399</ele>
        <time>2015-06-19T19:55:28Z</time>
      </trkpt>
      <trkpt lat="45.87028" lon="4.80916">
        <ele>398</ele>
        <time>2015-06-19T19:55:32Z</time>
      </trkpt>
      <trkpt lat="45.8703" lon="4.80913">
        <ele>398</ele>
        <time>2015-06-19T19:55:34Z</time>
      </trkpt>
      <trkpt lat="45.87042" lon="4.80895">
        <ele>398</ele>
        <time>2015-06-19T19:55:41Z</time>
      </trkpt>
      <trkpt lat="45.87049" lon="4.80884">
        <ele>400</ele>
        <time>2015-06-19T19:55:45Z</time>
      </trkpt>
      <trkpt lat="45.87053" lon="4.80875">
        <ele>400</ele>
        <time>2015-06-19T19:55:48Z</time>
      </trkpt>
      <trkpt lat="45.87064" lon="4.80861">
        <ele>403</ele>
        <time>2015-06-19T19:55:50Z</time>
      </trkpt>
      <trkpt lat="45.87066" lon="4.80852">
        <ele>408</ele>
        <time>2015-06-19T19:55:55Z</time>
      </trkpt>
      <trkpt lat="45.87074" lon="4.80843">
        <ele>408</ele>
        <time>2015-06-19T19:55:57Z</time>
      </trkpt>
      <trkpt lat="45.87108" lon="4.80815">
        <ele>398</ele>
        <time>2015-06-19T19:56:13Z</time>
      </trkpt>
      <trkpt lat="45.87115" lon="4.80772">
        <ele>389</ele>
        <time>2015-06-19T19:56:29Z</time>
      </trkpt>
      <trkpt lat="45.87112" lon="4.80764">
        <ele>387</ele>
        <time>2015-06-19T19:56:34Z</time>
      </trkpt>
      <trkpt lat="45.871" lon="4.80731">
        <ele>382</ele>
        <time>2015-06-19T19:56:45Z</time>
      </trkpt>
      <trkpt lat="45.87094" lon="4.80701">
        <ele>381</ele>
        <time>2015-06-19T19:56:46Z</time>
      </trkpt>
      <trkpt lat="45.87096" lon="4.80695">
        <ele>381</ele>
        <time>2015-06-19T19:56:49Z</time>
      </trkpt>
      <trkpt lat="45.87101" lon="4.80694">
        <ele>380</ele>
        <time>2015-06-19T19:56:53Z</time>
      </trkpt>
      <trkpt lat="45.87113" lon="4.80691">
        <ele>378</ele>
        <time>2015-06-19T19:56:58Z</time>
      </trkpt>
      <trkpt lat="45.87123" lon="4.80682">
        <ele>375</ele>
        <time>2015-06-19T19:57:03Z</time>
      </trkpt>
      <trkpt lat="45.87127" lon="4.80682">
        <ele>373</ele>
        <time>2015-06-19T19:57:06Z</time>
      </trkpt>
      <trkpt lat="45.87135" lon="4.80685">
        <ele>371</ele>
        <time>2015-06-19T19:57:12Z</time>
      </trkpt>
      <trkpt lat="45.87141" lon="4.80684">
        <ele>370</ele>
        <time>2015-06-19T19:57:16Z</time>
      </trkpt>
      <trkpt lat="45.87203" lon="4.80679">
        <ele>355</ele>
        <time>2015-06-19T19:57:39Z</time>
      </trkpt>
      <trkpt lat="45.87216" lon="4.80663">
        <ele>349</ele>
        <time>2015-06-19T19:57:44Z</time>
      </trkpt>
      <trkpt lat="45.87314" lon="4.80648">
        <ele>329</ele>
        <time>2015-06-19T19:58:15Z</time>
      </trkpt>
      <trkpt lat="45.87338" lon="4.8065">
        <ele>322</ele>
        <time>2015-06-19T19:58:24Z</time>
      </trkpt>
      <trkpt lat="45.87344" lon="4.80649">
        <ele>322</ele>
        <time>2015-06-19T19:58:26Z</time>
      </trkpt>
      <trkpt lat="45.87346" lon="4.80648">
        <ele>322</ele>
        <time>2015-06-19T19:58:27Z</time>
      </trkpt>
      <trkpt lat="45.87351" lon="4.80647">
        <ele>322</ele>
        <time>2015-06-19T19:58:29Z</time>
      </trkpt>
      <trkpt lat="45.87356" lon="4.80646">
        <ele>322</ele>
        <time>2015-06-19T19:58:31Z</time>
      </trkpt>
      <trkpt lat="45.87359" lon="4.80646">
        <ele>322</ele>
        <time>2015-06-19T19:58:32Z</time>
      </trkpt>
      <trkpt lat="45.87364" lon="4.80645">
        <ele>321</ele>
        <time>2015-06-19T19:58:34Z</time>
      </trkpt>
      <trkpt lat="45.87381" lon="4.80648">
        <ele>320</ele>
        <time>2015-06-19T19:58:39Z</time>
      </trkpt>
      <trkpt lat="45.87424" lon="4.80653">
        <ele>312</ele>
        <time>2015-06-19T19:58:56Z</time>
      </trkpt>
      <trkpt lat="45.87429" lon="4.80658">
        <ele>312</ele>
        <time>2015-06-19T19:58:58Z</time>
      </trkpt>
      <trkpt lat="45.87432" lon="4.80662">
        <ele>312</ele>
        <time>2015-06-19T19:58:59Z</time>
      </trkpt>
      <trkpt lat="45.87434" lon="4.80664">
        <ele>312</ele>
        <time>2015-06-19T19:59:00Z</time>
      </trkpt>
      <trkpt lat="45.87446" lon="4.8067">
        <ele>312</ele>
        <time>2015-06-19T19:59:04Z</time>
      </trkpt>
      <trkpt lat="45.87467" lon="4.8067">
        <ele>308</ele>
        <time>2015-06-19T19:59:13Z</time>
      </trkpt>
      <trkpt lat="45.87471" lon="4.80674">
        <ele>307</ele>
        <time>2015-06-19T19:59:16Z</time>
      </trkpt>
      <trkpt lat="45.87492" lon="4.80681">
        <ele>306</ele>
        <time>2015-06-19T19:59:19Z</time>
      </trkpt>
      <trkpt lat="45.87497" lon="4.80681">
        <ele>305</ele>
        <time>2015-06-19T19:59:21Z</time>
      </trkpt>
      <trkpt lat="45.87502" lon="4.80675">
        <ele>305</ele>
        <time>2015-06-19T19:59:23Z</time>
      </trkpt>
      <trkpt lat="45.87502" lon="4.80663">
        <ele>305</ele>
        <time>2015-06-19T19:59:24Z</time>
      </trkpt>
      <trkpt lat="45.87499" lon="4.80654">
        <ele>305</ele>
        <time>2015-06-19T19:59:25Z</time>
      </trkpt>
      <trkpt lat="45.87495" lon="4.80649">
        <ele>305</ele>
        <time>2015-06-19T19:59:26Z</time>
      </trkpt>
      <trkpt lat="45.87494" lon="4.8064">
        <ele>304</ele>
        <time>2015-06-19T19:59:27Z</time>
      </trkpt>
      <trkpt lat="45.8749" lon="4.80635">
        <ele>304</ele>
        <time>2015-06-19T19:59:28Z</time>
      </trkpt>
      <trkpt lat="45.87487" lon="4.80607">
        <ele>298</ele>
        <time>2015-06-19T19:59:37Z</time>
      </trkpt>
      <trkpt lat="45.87491" lon="4.8057">
        <ele>293</ele>
        <time>2015-06-19T19:59:46Z</time>
      </trkpt>
      <trkpt lat="45.87493" lon="4.80571">
        <ele>291</ele>
        <time>2015-06-19T19:59:55Z</time>
      </trkpt>
      <trkpt lat="45.87497" lon="4.80574">
        <ele>290</ele>
        <time>2015-06-19T20:00:40Z</time>
      </trkpt>
      <trkpt lat="45.87502" lon="4.80572">
        <ele>291</ele>
        <time>2015-06-19T20:00:44Z</time>
      </trkpt>
      <trkpt lat="45.87507" lon="4.80575">
        <ele>291</ele>
        <time>2015-06-19T20:00:48Z</time>
      </trkpt>
      <trkpt lat="45.87513" lon="4.8058">
        <ele>292</ele>
        <time>2015-06-19T20:00:51Z</time>
      </trkpt>
      <trkpt lat="45.87527" lon="4.80586">
        <ele>293</ele>
        <time>2015-06-19T20:00:55Z</time>
      </trkpt>
      <trkpt lat="45.87539" lon="4.80581">
        <ele>293</ele>
        <time>2015-06-19T20:01:01Z</time>
      </trkpt>
      <trkpt lat="45.87546" lon="4.8058">
        <ele>293</ele>
        <time>2015-06-19T20:01:04Z</time>
      </trkpt>
      <trkpt lat="45.87557" lon="4.80581">
        <ele>293</ele>
        <time>2015-06-19T20:01:08Z</time>
      </trkpt>
      <trkpt lat="45.87563" lon="4.80579">
        <ele>293</ele>
        <time>2015-06-19T20:01:10Z</time>
      </trkpt>
      <trkpt lat="45.87583" lon="4.80578">
        <ele>293</ele>
        <time>2015-06-19T20:01:16Z</time>
      </trkpt>
      <trkpt lat="45.87672" lon="4.80575">
        <ele>284</ele>
        <time>2015-06-19T20:01:41Z</time>
      </trkpt>
      <trkpt lat="45.87675" lon="4.80571">
        <ele>279</ele>
        <time>2015-06-19T20:01:49Z</time>
      </trkpt>
      <trkpt lat="45.87691" lon="4.80482">
        <ele>264</ele>
        <time>2015-06-19T20:02:13Z</time>
      </trkpt>
      <trkpt lat="45.87697" lon="4.80475">
        <ele>264</ele>
        <time>2015-06-19T20:02:16Z</time>
      </trkpt>
      <trkpt lat="45.877" lon="4.80473">
        <ele>264</ele>
        <time>2015-06-19T20:02:17Z</time>
      </trkpt>
      <trkpt lat="45.87709" lon="4.80466">
        <ele>263</ele>
        <time>2015-06-19T20:02:20Z</time>
      </trkpt>
      <trkpt lat="45.87712" lon="4.80459">
        <ele>262</ele>
        <time>2015-06-19T20:02:22Z</time>
      </trkpt>
      <trkpt lat="45.87717" lon="4.80454">
        <ele>261</ele>
        <time>2015-06-19T20:02:25Z</time>
      </trkpt>
      <trkpt lat="45.87722" lon="4.80452">
        <ele>259</ele>
        <time>2015-06-19T20:02:32Z</time>
      </trkpt>
      <trkpt lat="45.87726" lon="4.80448">
        <ele>259</ele>
        <time>2015-06-19T20:02:35Z</time>
      </trkpt>
      <trkpt lat="45.87731" lon="4.80445">
        <ele>259</ele>
        <time>2015-06-19T20:02:37Z</time>
      </trkpt>
      <trkpt lat="45.87742" lon="4.80438">
        <ele>259</ele>
        <time>2015-06-19T20:02:41Z</time>
      </trkpt>
      <trkpt lat="45.87765" lon="4.80417">
        <ele>264</ele>
        <time>2015-06-19T20:02:51Z</time>
      </trkpt>
      <trkpt lat="45.87767" lon="4.80409">
        <ele>264</ele>
        <time>2015-06-19T20:02:53Z</time>
      </trkpt>
      <trkpt lat="45.87812" lon="4.80287">
        <ele>256</ele>
        <time>2015-06-19T20:03:24Z</time>
      </trkpt>
      <trkpt lat="45.87812" lon="4.80284">
        <ele>256</ele>
        <time>2015-06-19T20:03:25Z</time>
      </trkpt>
      <trkpt lat="45.87822" lon="4.80201">
        <ele>252</ele>
        <time>2015-06-19T20:03:44Z</time>
      </trkpt>
      <trkpt lat="45.87829" lon="4.80189">
        <ele>253</ele>
        <time>2015-06-19T20:03:47Z</time>
      </trkpt>
      <trkpt lat="45.87831" lon="4.80185">
        <ele>253</ele>
        <time>2015-06-19T20:03:48Z</time>
      </trkpt>
      <trkpt lat="45.87841" lon="4.80171">
        <ele>253</ele>
        <time>2015-06-19T20:03:52Z</time>
      </trkpt>
      <trkpt lat="45.87851" lon="4.8016">
        <ele>251</ele>
        <time>2015-06-19T20:03:56Z</time>
      </trkpt>
      <trkpt lat="45.87854" lon="4.80157">
        <ele>251</ele>
        <time>2015-06-19T20:03:57Z</time>
      </trkpt>
      <trkpt lat="45.87859" lon="4.80151">
        <ele>251</ele>
        <time>2015-06-19T20:03:59Z</time>
      </trkpt>
      <trkpt lat="45.87863" lon="4.80146">
        <ele>251</ele>
        <time>2015-06-19T20:04:01Z</time>
      </trkpt>
      <trkpt lat="45.87873" lon="4.80135">
        <ele>253</ele>
        <time>2015-06-19T20:04:07Z</time>
      </trkpt>
      <trkpt lat="45.87877" lon="4.80129">
        <ele>253</ele>
        <time>2015-06-19T20:04:09Z</time>
      </trkpt>
      <trkpt lat="45.87883" lon="4.80123">
        <ele>254</ele>
        <time>2015-06-19T20:04:11Z</time>
      </trkpt>
      <trkpt lat="45.87886" lon="4.8012">
        <ele>254</ele>
        <time>2015-06-19T20:04:12Z</time>
      </trkpt>
      <trkpt lat="45.87889" lon="4.80117">
        <ele>254</ele>
        <time>2015-06-19T20:04:13Z</time>
      </trkpt>
      <trkpt lat="45.87911" lon="4.80105">
        <ele>255</ele>
        <time>2015-06-19T20:04:18Z</time>
      </trkpt>
      <trkpt lat="45.87953" lon="4.80059">
        <ele>253</ele>
        <time>2015-06-19T20:04:35Z</time>
      </trkpt>
      <trkpt lat="45.87967" lon="4.80026">
        <ele>255</ele>
        <time>2015-06-19T20:04:45Z</time>
      </trkpt>
      <trkpt lat="45.87979" lon="4.8001">
        <ele>258</ele>
        <time>2015-06-19T20:04:52Z</time>
      </trkpt>
      <trkpt lat="45.8801" lon="4.79892">
        <ele>245</ele>
        <time>2015-06-19T20:05:23Z</time>
      </trkpt>
      <trkpt lat="45.8801" lon="4.79884">
        <ele>245</ele>
        <time>2015-06-19T20:05:25Z</time>
      </trkpt>
      <trkpt lat="45.88011" lon="4.79862">
        <ele>242</ele>
        <time>2015-06-19T20:05:31Z</time>
      </trkpt>
      <trkpt lat="45.88014" lon="4.79857">
        <ele>242</ele>
        <time>2015-06-19T20:05:32Z</time>
      </trkpt>
      <trkpt lat="45.88032" lon="4.79842">
        <ele>241</ele>
        <time>2015-06-19T20:05:33Z</time>
      </trkpt>
      <trkpt lat="45.88041" lon="4.79837">
        <ele>239</ele>
        <time>2015-06-19T20:05:37Z</time>
      </trkpt>
      <trkpt lat="45.88046" lon="4.7984">
        <ele>238</ele>
        <time>2015-06-19T20:05:39Z</time>
      </trkpt>
      <trkpt lat="45.88067" lon="4.79864">
        <ele>238</ele>
        <time>2015-06-19T20:05:45Z</time>
      </trkpt>
      <trkpt lat="45.88072" lon="4.79875">
        <ele>238</ele>
        <time>2015-06-19T20:05:47Z</time>
      </trkpt>
      <trkpt lat="45.88074" lon="4.79888">
        <ele>239</ele>
        <time>2015-06-19T20:05:50Z</time>
      </trkpt>
      <trkpt lat="45.88077" lon="4.79898">
        <ele>239</ele>
        <time>2015-06-19T20:05:53Z</time>
      </trkpt>
      <trkpt lat="45.88078" lon="4.79901">
        <ele>239</ele>
        <time>2015-06-19T20:05:54Z</time>
      </trkpt>
      <trkpt lat="45.88079" lon="4.7991">
        <ele>239</ele>
        <time>2015-06-19T20:05:56Z</time>
      </trkpt>
      <trkpt lat="45.88087" lon="4.79933">
        <ele>240</ele>
        <time>2015-06-19T20:06:01Z</time>
      </trkpt>
      <trkpt lat="45.88091" lon="4.79942">
        <ele>240</ele>
        <time>2015-06-19T20:06:03Z</time>
      </trkpt>
      <trkpt lat="45.88096" lon="4.79953">
        <ele>241</ele>
        <time>2015-06-19T20:06:06Z</time>
      </trkpt>
      <trkpt lat="45.88101" lon="4.79966">
        <ele>240</ele>
        <time>2015-06-19T20:06:10Z</time>
      </trkpt>
      <trkpt lat="45.88103" lon="4.7997">
        <ele>240</ele>
        <time>2015-06-19T20:06:12Z</time>
      </trkpt>
      <trkpt lat="45.88106" lon="4.79971">
        <ele>241</ele>
        <time>2015-06-19T20:06:14Z</time>
      </trkpt>
      <trkpt lat="45.88108" lon="4.79973">
        <ele>241</ele>
        <time>2015-06-19T20:06:16Z</time>
      </trkpt>
      <trkpt lat="45.88111" lon="4.79981">
        <ele>240</ele>
        <time>2015-06-19T20:06:24Z</time>
      </trkpt>
      <trkpt lat="45.88108" lon="4.79989">
        <ele>240</ele>
        <time>2015-06-19T20:06:27Z</time>
      </trkpt>
      <trkpt lat="45.88105" lon="4.79998">
        <ele>239</ele>
        <time>2015-06-19T20:06:29Z</time>
      </trkpt>
      <trkpt lat="45.88105" lon="4.80014">
        <ele>237</ele>
        <time>2015-06-19T20:06:33Z</time>
      </trkpt>
      <trkpt lat="45.88105" lon="4.80034">
        <ele>237</ele>
        <time>2015-06-19T20:06:38Z</time>
      </trkpt>
      <trkpt lat="45.88113" lon="4.80123">
        <ele>241</ele>
        <time>2015-06-19T20:07:01Z</time>
      </trkpt>
      <trkpt lat="45.88113" lon="4.80139">
        <ele>240</ele>
        <time>2015-06-19T20:07:05Z</time>
      </trkpt>
      <trkpt lat="45.88113" lon="4.80143">
        <ele>240</ele>
        <time>2015-06-19T20:07:06Z</time>
      </trkpt>
      <trkpt lat="45.88122" lon="4.80197">
        <ele>238</ele>
        <time>2015-06-19T20:07:21Z</time>
      </trkpt>
      <trkpt lat="45.88124" lon="4.80201">
        <ele>237</ele>
        <time>2015-06-19T20:07:23Z</time>
      </trkpt>
      <trkpt lat="45.88155" lon="4.80213">
        <ele>233</ele>
        <time>2015-06-19T20:07:32Z</time>
      </trkpt>
      <trkpt lat="45.8816" lon="4.80213">
        <ele>233</ele>
        <time>2015-06-19T20:07:34Z</time>
      </trkpt>
      <trkpt lat="45.88188" lon="4.80211">
        <ele>236</ele>
        <time>2015-06-19T20:07:44Z</time>
      </trkpt>
      <trkpt lat="45.88228" lon="4.80209">
        <ele>235</ele>
        <time>2015-06-19T20:07:53Z</time>
      </trkpt>
      <trkpt lat="45.88233" lon="4.80212">
        <ele>236</ele>
        <time>2015-06-19T20:07:54Z</time>
      </trkpt>
      <trkpt lat="45.88261" lon="4.80226">
        <ele>235</ele>
        <time>2015-06-19T20:08:03Z</time>
      </trkpt>
      <trkpt lat="45.88273" lon="4.80225">
        <ele>234</ele>
        <time>2015-06-19T20:08:07Z</time>
      </trkpt>
      <trkpt lat="45.88276" lon="4.80226">
        <ele>233</ele>
        <time>2015-06-19T20:08:08Z</time>
      </trkpt>
      <trkpt lat="45.88295" lon="4.8023">
        <ele>232</ele>
        <time>2015-06-19T20:08:16Z</time>
      </trkpt>
      <trkpt lat="45.88301" lon="4.80232">
        <ele>233</ele>
        <time>2015-06-19T20:08:18Z</time>
      </trkpt>
      <trkpt lat="45.88306" lon="4.80233">
        <ele>234</ele>
        <time>2015-06-19T20:08:19Z</time>
      </trkpt>
      <trkpt lat="45.8831" lon="4.80235">
        <ele>234</ele>
        <time>2015-06-19T20:08:20Z</time>
      </trkpt>
      <trkpt lat="45.88324" lon="4.80236">
        <ele>233</ele>
        <time>2015-06-19T20:08:23Z</time>
      </trkpt>
      <trkpt lat="45.88342" lon="4.80235">
        <ele>230</ele>
        <time>2015-06-19T20:08:31Z</time>
      </trkpt>
      <trkpt lat="45.88345" lon="4.80232">
        <ele>231</ele>
        <time>2015-06-19T20:08:33Z</time>
      </trkpt>
      <trkpt lat="45.88348" lon="4.80227">
        <ele>230</ele>
        <time>2015-06-19T20:08:35Z</time>
      </trkpt>
      <trkpt lat="45.88353" lon="4.80226">
        <ele>230</ele>
        <time>2015-06-19T20:08:38Z</time>
      </trkpt>
      <trkpt lat="45.88379" lon="4.80242">
        <ele>224</ele>
        <time>2015-06-19T20:08:46Z</time>
      </trkpt>
      <trkpt lat="45.88387" lon="4.8025">
        <ele>222</ele>
        <time>2015-06-19T20:08:48Z</time>
      </trkpt>
      <trkpt lat="45.88403" lon="4.80257">
        <ele>222</ele>
        <time>2015-06-19T20:08:52Z</time>
      </trkpt>
      <trkpt lat="45.88412" lon="4.80259">
        <ele>223</ele>
        <time>2015-06-19T20:08:55Z</time>
      </trkpt>
      <trkpt lat="45.88414" lon="4.8026">
        <ele>223</ele>
        <time>2015-06-19T20:08:56Z</time>
      </trkpt>
      <trkpt lat="45.88417" lon="4.80262">
        <ele>223</ele>
        <time>2015-06-19T20:08:57Z</time>
      </trkpt>
      <trkpt lat="45.88419" lon="4.80264">
        <ele>223</ele>
        <time>2015-06-19T20:08:58Z</time>
      </trkpt>
      <trkpt lat="45.88422" lon="4.80265">
        <ele>223</ele>
        <time>2015-06-19T20:08:59Z</time>
      </trkpt>
      <trkpt lat="45.88432" lon="4.80269">
        <ele>223</ele>
        <time>2015-06-19T20:09:03Z</time>
      </trkpt>
      <trkpt lat="45.88446" lon="4.80275">
        <ele>222</ele>
        <time>2015-06-19T20:09:08Z</time>
      </trkpt>
      <trkpt lat="45.88448" lon="4.80276">
        <ele>222</ele>
        <time>2015-06-19T20:09:09Z</time>
      </trkpt>
      <trkpt lat="45.88456" lon="4.80279">
        <ele>222</ele>
        <time>2015-06-19T20:09:12Z</time>
      </trkpt>
      <trkpt lat="45.88462" lon="4.8028">
        <ele>222</ele>
        <time>2015-06-19T20:09:14Z</time>
      </trkpt>
      <trkpt lat="45.88469" lon="4.80283">
        <ele>222</ele>
        <time>2015-06-19T20:09:16Z</time>
      </trkpt>
      <trkpt lat="45.88475" lon="4.80284">
        <ele>221</ele>
        <time>2015-06-19T20:09:18Z</time>
      </trkpt>
      <trkpt lat="45.88478" lon="4.80285">
        <ele>221</ele>
        <time>2015-06-19T20:09:19Z</time>
      </trkpt>
      <trkpt lat="45.88517" lon="4.80294">
        <ele>218</ele>
        <time>2015-06-19T20:09:30Z</time>
      </trkpt>
      <trkpt lat="45.88525" lon="4.80297">
        <ele>215</ele>
        <time>2015-06-19T20:09:32Z</time>
      </trkpt>
      <trkpt lat="45.88529" lon="4.80298">
        <ele>215</ele>
        <time>2015-06-19T20:09:33Z</time>
      </trkpt>
      <trkpt lat="45.88534" lon="4.80299">
        <ele>215</ele>
        <time>2015-06-19T20:09:34Z</time>
      </trkpt>
      <trkpt lat="45.88571" lon="4.80302">
        <ele>219</ele>
        <time>2015-06-19T20:09:44Z</time>
      </trkpt>
      <trkpt lat="45.88579" lon="4.80302">
        <ele>218</ele>
        <time>2015-06-19T20:09:47Z</time>
      </trkpt>
      <trkpt lat="45.88584" lon="4.80302">
        <ele>217</ele>
        <time>2015-06-19T20:09:49Z</time>
      </trkpt>
      <trkpt lat="45.88597" lon="4.80307">
        <ele>219</ele>
        <time>2015-06-19T20:09:54Z</time>
      </trkpt>
      <trkpt lat="45.886" lon="4.80307">
        <ele>219</ele>
        <time>2015-06-19T20:09:55Z</time>
      </trkpt>
      <trkpt lat="45.88603" lon="4.80307">
        <ele>219</ele>
        <time>2015-06-19T20:09:56Z</time>
      </trkpt>
      <trkpt lat="45.88609" lon="4.80308">
        <ele>218</ele>
        <time>2015-06-19T20:09:58Z</time>
      </trkpt>
      <trkpt lat="45.88613" lon="4.80313">
        <ele>218</ele>
        <time>2015-06-19T20:09:59Z</time>
      </trkpt>
      <trkpt lat="45.88625" lon="4.80336">
        <ele>217</ele>
        <time>2015-06-19T20:10:00Z</time>
      </trkpt>
      <trkpt lat="45.88626" lon="4.80339">
        <ele>216</ele>
        <time>2015-06-19T20:10:01Z</time>
      </trkpt>
      <trkpt lat="45.88641" lon="4.80355">
        <ele>214</ele>
        <time>2015-06-19T20:10:07Z</time>
      </trkpt>
      <trkpt lat="45.88648" lon="4.80362">
        <ele>213</ele>
        <time>2015-06-19T20:10:09Z</time>
      </trkpt>
      <trkpt lat="45.88682" lon="4.80378">
        <ele>208</ele>
        <time>2015-06-19T20:10:23Z</time>
      </trkpt>
      <trkpt lat="45.88688" lon="4.80383">
        <ele>208</ele>
        <time>2015-06-19T20:10:26Z</time>
      </trkpt>
      <trkpt lat="45.8869" lon="4.80386">
        <ele>208</ele>
        <time>2015-06-19T20:10:27Z</time>
      </trkpt>
      <trkpt lat="45.88694" lon="4.80391">
        <ele>208</ele>
        <time>2015-06-19T20:10:29Z</time>
      </trkpt>
      <trkpt lat="45.88714" lon="4.80408">
        <ele>206</ele>
        <time>2015-06-19T20:10:36Z</time>
      </trkpt>
      <trkpt lat="45.88741" lon="4.80415">
        <ele>199</ele>
        <time>2015-06-19T20:10:43Z</time>
      </trkpt>
      <trkpt lat="45.88741" lon="4.8042">
        <ele>198</ele>
        <time>2015-06-19T20:10:44Z</time>
      </trkpt>
      <trkpt lat="45.88742" lon="4.80425">
        <ele>198</ele>
        <time>2015-06-19T20:10:45Z</time>
      </trkpt>
      <trkpt lat="45.88744" lon="4.80443">
        <ele>195</ele>
        <time>2015-06-19T20:10:49Z</time>
      </trkpt>
      <trkpt lat="45.88748" lon="4.80448">
        <ele>194</ele>
        <time>2015-06-19T20:10:50Z</time>
      </trkpt>
      <trkpt lat="45.88773" lon="4.80463">
        <ele>190</ele>
        <time>2015-06-19T20:10:57Z</time>
      </trkpt>
      <trkpt lat="45.88792" lon="4.80465">
        <ele>183</ele>
        <time>2015-06-19T20:11:03Z</time>
      </trkpt>
      <trkpt lat="45.88795" lon="4.80462">
        <ele>182</ele>
        <time>2015-06-19T20:11:04Z</time>
      </trkpt>
      <trkpt lat="45.88801" lon="4.80459">
        <ele>181</ele>
        <time>2015-06-19T20:11:06Z</time>
      </trkpt>
      <trkpt lat="45.88813" lon="4.80443">
        <ele>180</ele>
        <time>2015-06-19T20:11:13Z</time>
      </trkpt>
      <trkpt lat="45.88816" lon="4.80441">
        <ele>180</ele>
        <time>2015-06-19T20:11:15Z</time>
      </trkpt>
      <trkpt lat="45.88827" lon="4.8044">
        <ele>178</ele>
        <time>2015-06-19T20:11:29Z</time>
      </trkpt>
      <trkpt lat="45.8883" lon="4.80433">
        <ele>178</ele>
        <time>2015-06-19T20:11:40Z</time>
      </trkpt>
    </trkseg>
  </trk>
</gpx>